Observation data for Menard on 01/17/2021      Previous  Date  Next       Current Mesonet Observations  Soil Data  Daily Summary Page  Observations in Plain Language
KMD1 170600Z 09001KT 07/M05 A3008 RMK A01 T00671050  RH  043%=      5-min Rain = 0
KMD1 170601Z 11001KT 07/M05 A3008 RMK A01 T00681050  RH  043%=      5-min Rain = 0
KMD1 170602Z 12001KT 07/M05 A3008 RMK A01 T00671049  RH  043%=      5-min Rain = 0
KMD1 170603Z 13001KT 07/M05 A3008 RMK A01 T00661050  RH  043%=      5-min Rain = 0
KMD1 170604Z 12001KT 07/M05 A3008 RMK A01 T00661050  RH  043%=      5-min Rain = 0
KMD1 170605Z 12001KT 07/M05 A3008 RMK A01 T00661050  RH  043%=      5-min Rain = 0
KMD1 170606Z 08000KT 07/M05 A3008 RMK A01 T00661050  RH  043%=      5-min Rain = 0
KMD1 170607Z 07000KT 07/M05 A3008 RMK A01 T00661051  RH  043%=      5-min Rain = 0
KMD1 170608Z 04001KT 07/M05 A3008 RMK A01 T00661051  RH  043%=      5-min Rain = 0
KMD1 170609Z 02001KT 07/M05 A3008 RMK A01 T00661051  RH  043%=      5-min Rain = 0
KMD1 170610Z 02001KT 07/M05 A3008 RMK A01 T00671052  RH  042%=      5-min Rain = 0
KMD1 170611Z 02001KT 07/M05 A3008 RMK A01 T00681053  RH  042%=      5-min Rain = 0
KMD1 170612Z 02001KT 07/M05 A3008 RMK A01 T00691053  RH  041%=      5-min Rain = 0
KMD1 170613Z 02000KT 07/M05 A3008 RMK A01 T00691053  RH  041%=      5-min Rain = 0
KMD1 170614Z 00000KT 07/M05 A3008 RMK A01 T00691054  RH  041%=      5-min Rain = 0
KMD1 170615Z 00000KT 07/M05 A3008 RMK A01 T00691054  RH  041%=      5-min Rain = 0
KMD1 170616Z 00000KT 07/M06 A3008 RMK A01 T00691055  RH  041%=      5-min Rain = 0
KMD1 170617Z 00000KT 07/M05 A3008 RMK A01 T00691054  RH  041%=      5-min Rain = 0
KMD1 170618Z 00000KT 07/M05 A3008 RMK A01 T00691054  RH  041%=      5-min Rain = 0
KMD1 170619Z 00000KT 07/M05 A3008 RMK A01 T00681053  RH  042%=      5-min Rain = 0
KMD1 170620Z 00000KT 07/M05 A3008 RMK A01 T00671053  RH  042%=      5-min Rain = 0
KMD1 170621Z 00000KT 06/M05 A3008 RMK A01 T00641048  RH  044%=      5-min Rain = 0
KMD1 170622Z 02000KT 06/M05 A3008 RMK A01 T00601047  RH  046%=      5-min Rain = 0
KMD1 170623Z 02000KT 06/M05 A3008 RMK A01 T00581047  RH  047%=      5-min Rain = 0
KMD1 170624Z 00000KT 06/M05 A3008 RMK A01 T00551048  RH  047%=      5-min Rain = 0
KMD1 170625Z 00000KT 05/M05 A3009 RMK A01 T00531048  RH  048%=      5-min Rain = 0
KMD1 170626Z 00000KT 05/M05 A3009 RMK A01 T00491048  RH  049%=      5-min Rain = 0
KMD1 170627Z 00000KT 05/M05 A3009 RMK A01 T00451050  RH  050%=      5-min Rain = 0
KMD1 170628Z 00000KT 05/M05 A3009 RMK A01 T00451050  RH  050%=      5-min Rain = 0
KMD1 170629Z 02001KT 04/M05 A3009 RMK A01 T00441049  RH  051%=      5-min Rain = 0
KMD1 170630Z 02001KT 04/M05 A3009 RMK A01 T00431048  RH  051%=      5-min Rain = 0
KMD1 170631Z 02001KT 04/M05 A3009 RMK A01 T00421050  RH  051%=      5-min Rain = 0
KMD1 170632Z 00001KT 04/M05 A3009 RMK A01 T00421050  RH  051%=      5-min Rain = 0
KMD1 170633Z 35002KT 04/M05 A3009 RMK A01 T00411050  RH  052%=      5-min Rain = 0
KMD1 170634Z 35002KT 04/M05 A3009 RMK A01 T00401050  RH  052%=      5-min Rain = 0
KMD1 170635Z 35003KT 04/M05 A3009 RMK A01 T00401047  RH  053%=      5-min Rain = 0
KMD1 170636Z 00003KT 04/M05 A3009 RMK A01 T00391045  RH  054%=      5-min Rain = 0
KMD1 170637Z 00003KT 04/M04 A3009 RMK A01 T00381044  RH  055%=      5-min Rain = 0
KMD1 170638Z 00003KT 04/M04 A3009 RMK A01 T00371042  RH  056%=      5-min Rain = 0
KMD1 170639Z 35003KT 04/M04 A3009 RMK A01 T00361042  RH  057%=      5-min Rain = 0
KMD1 170640Z 35003KT 04/M04 A3009 RMK A01 T00351042  RH  057%=      5-min Rain = 0
KMD1 170641Z 35003KT 03/M04 A3009 RMK A01 T00331042  RH  058%=      5-min Rain = 0
KMD1 170642Z 35003KT 03/M04 A3009 RMK A01 T00321043  RH  058%=      5-min Rain = 0
KMD1 170643Z 36003KT 03/M05 A3008 RMK A01 T00321045  RH  057%=      5-min Rain = 0
KMD1 170644Z 00003KT 03/M05 A3008 RMK A01 T00321045  RH  057%=      5-min Rain = 0
KMD1 170645Z 00002KT 03/M04 A3008 RMK A01 T00321044  RH  058%=      5-min Rain = 0
KMD1 170646Z 00003KT 03/M04 A3008 RMK A01 T00311043  RH  058%=      5-min Rain = 0
KMD1 170647Z 00002KT 03/M04 A3008 RMK A01 T00291043  RH  059%=      5-min Rain = 0
KMD1 170648Z 00002KT 03/M04 A3008 RMK A01 T00281044  RH  059%=      5-min Rain = 0
KMD1 170649Z 00002KT 03/M04 A3008 RMK A01 T00291044  RH  059%=      5-min Rain = 0
KMD1 170650Z 36003KT 03/M04 A3008 RMK A01 T00281044  RH  059%=      5-min Rain = 0
KMD1 170651Z 35003KT 03/M04 A3008 RMK A01 T00291043  RH  059%=      5-min Rain = 0
KMD1 170652Z 35003KT 03/M04 A3008 RMK A01 T00291043  RH  059%=      5-min Rain = 0
KMD1 170653Z 35003KT 03/M04 A3008 RMK A01 T00291043  RH  059%=      5-min Rain = 0
KMD1 170654Z 35003KT 03/M04 A3008 RMK A01 T00281040  RH  061%=      5-min Rain = 0
KMD1 170655Z 35003KT 03/M04 A3008 RMK A01 T00271040  RH  062%=      5-min Rain = 0
KMD1 170656Z 35003KT 03/M04 A3008 RMK A01 T00261042  RH  061%=      5-min Rain = 0
KMD1 170657Z 35003KT 02/M04 A3008 RMK A01 T00241044  RH  061%=      5-min Rain = 0
KMD1 170658Z 35003KT 02/M04 A3008 RMK A01 T00231043  RH  061%=      5-min Rain = 0
KMD1 170659Z 35003KT 02/M04 A3008 RMK A01 T00231042  RH  062%=      5-min Rain = 0
KMD1 170700Z 35003KT 02/M04 A3008 RMK A01 T00221042  RH  062%=      5-min Rain = 0
KMD1 170701Z 35003KT 02/M04 A3008 RMK A01 T00221043  RH  062%=      5-min Rain = 0
KMD1 170702Z 35002KT 02/M04 A3008 RMK A01 T00211043  RH  062%=      5-min Rain = 0
KMD1 170703Z 34002KT 02/M04 A3008 RMK A01 T00211044  RH  062%=      5-min Rain = 0
KMD1 170704Z 33001KT 02/M04 A3008 RMK A01 T00201044  RH  062%=      5-min Rain = 0
KMD1 170705Z 00000KT 02/M05 A3008 RMK A01 T00201045  RH  062%=      5-min Rain = 0
KMD1 170706Z 32000KT 02/M05 A3008 RMK A01 T00191045  RH  063%=      5-min Rain = 0
KMD1 170707Z 29000KT 02/M05 A3009 RMK A01 T00191045  RH  062%=      5-min Rain = 0
KMD1 170708Z 31000KT 02/M04 A3009 RMK A01 T00201043  RH  063%=      5-min Rain = 0
KMD1 170709Z 32000KT 02/M04 A3009 RMK A01 T00221041  RH  063%=      5-min Rain = 0
KMD1 170710Z 00000KT 02/M04 A3009 RMK A01 T00231041  RH  063%=      5-min Rain = 0
KMD1 170711Z 00000KT 02/M04 A3009 RMK A01 T00241041  RH  062%=      5-min Rain = 0
KMD1 170712Z 00000KT 02/M04 A3009 RMK A01 T00241041  RH  062%=      5-min Rain = 0
KMD1 170713Z 00000KT 02/M04 A3009 RMK A01 T00241040  RH  063%=      5-min Rain = 0
KMD1 170714Z 00000KT 02/M04 A3008 RMK A01 T00241038  RH  064%=      5-min Rain = 0
KMD1 170715Z 00000KT 02/M04 A3008 RMK A01 T00231038  RH  064%=      5-min Rain = 0
KMD1 170716Z 00000KT 02/M04 A3008 RMK A01 T00231036  RH  065%=      5-min Rain = 0
KMD1 170717Z 00000KT 02/M04 A3008 RMK A01 T00221036  RH  066%=      5-min Rain = 0
KMD1 170718Z 00000KT 02/M04 A3009 RMK A01 T00221036  RH  066%=      5-min Rain = 0
KMD1 170719Z 35001KT 02/M04 A3009 RMK A01 T00201038  RH  065%=      5-min Rain = 0
KMD1 170720Z 35002KT 02/M04 A3009 RMK A01 T00211041  RH  064%=      5-min Rain = 0
KMD1 170721Z 35003KT 02/M04 A3009 RMK A01 T00211043  RH  063%=      5-min Rain = 0
KMD1 170722Z 34002KT 02/M05 A3009 RMK A01 T00211045  RH  062%=      5-min Rain = 0
KMD1 170723Z 34001KT 02/M05 A3009 RMK A01 T00221045  RH  061%=      5-min Rain = 0
KMD1 170724Z 34000KT 02/M05 A3009 RMK A01 T00221045  RH  061%=      5-min Rain = 0
KMD1 170725Z 00000KT 02/M05 A3009 RMK A01 T00221045  RH  061%=      5-min Rain = 0
KMD1 170726Z 00000KT 02/M05 A3009 RMK A01 T00211046  RH  061%=      5-min Rain = 0
KMD1 170727Z 00000KT 02/M05 A3009 RMK A01 T00201047  RH  061%=      5-min Rain = 0
KMD1 170728Z 00000KT 02/M05 A3009 RMK A01 T00191046  RH  062%=      5-min Rain = 0
KMD1 170729Z 00000KT 02/M05 A3009 RMK A01 T00181046  RH  063%=      5-min Rain = 0
KMD1 170730Z 00000KT 02/M05 A3009 RMK A01 T00181045  RH  063%=      5-min Rain = 0
KMD1 170731Z 00000KT 02/M04 A3009 RMK A01 T00181041  RH  065%=      5-min Rain = 0
KMD1 170732Z 00000KT 02/M04 A3009 RMK A01 T00171042  RH  065%=      5-min Rain = 0
KMD1 170733Z 00000KT 02/M04 A3009 RMK A01 T00161042  RH  065%=      5-min Rain = 0
KMD1 170734Z 00000KT 02/M04 A3009 RMK A01 T00161043  RH  065%=      5-min Rain = 0
KMD1 170735Z 00000KT 02/M04 A3009 RMK A01 T00151044  RH  065%=      5-min Rain = 0
KMD1 170736Z 00000KT 02/M05 A3009 RMK A01 T00151045  RH  065%=      5-min Rain = 0
KMD1 170737Z 00000KT 01/M05 A3009 RMK A01 T00141045  RH  065%=      5-min Rain = 0
KMD1 170738Z 00000KT 01/M05 A3009 RMK A01 T00131045  RH  065%=      5-min Rain = 0
KMD1 170739Z 00000KT 01/M05 A3009 RMK A01 T00131045  RH  065%=      5-min Rain = 0
KMD1 170740Z 00000KT 01/M05 A3009 RMK A01 T00131045  RH  065%=      5-min Rain = 0
KMD1 170741Z 34000KT 01/M05 A3009 RMK A01 T00121045  RH  066%=      5-min Rain = 0
KMD1 170742Z 34000KT 01/M04 A3009 RMK A01 T00111042  RH  068%=      5-min Rain = 0
KMD1 170743Z 00000KT 01/M04 A3009 RMK A01 T00111041  RH  068%=      5-min Rain = 0
KMD1 170744Z 34000KT 01/M04 A3009 RMK A01 T00111040  RH  069%=      5-min Rain = 0
KMD1 170745Z 22001KT 01/M04 A3009 RMK A01 T00101039  RH  070%=      5-min Rain = 0
KMD1 170746Z 22001KT 01/M04 A301 RMK A01 T00111038  RH  070%=      5-min Rain = 0
KMD1 170747Z 22002KT 01/M04 A301 RMK A01 T00121038  RH  070%=      5-min Rain = 0
KMD1 170748Z 23001KT 01/M04 A301 RMK A01 T00121039  RH  069%=      5-min Rain = 0
KMD1 170749Z 23001KT 01/M04 A301 RMK A01 T00101041  RH  069%=      5-min Rain = 0
KMD1 170750Z 23000KT 01/M04 A301 RMK A01 T00081041  RH  069%=      5-min Rain = 0
KMD1 170751Z 00000KT 01/M04 A301 RMK A01 T00071042  RH  070%=      5-min Rain = 0
KMD1 170752Z 00000KT 01/M04 A301 RMK A01 T00051043  RH  070%=      5-min Rain = 0
KMD1 170753Z 00000KT 00/M04 A301 RMK A01 T00031044  RH  071%=      5-min Rain = 0
KMD1 170754Z 29000KT 00/M04 A301 RMK A01 T00021044  RH  071%=      5-min Rain = 0
KMD1 170755Z 29001KT 00/M04 A301 RMK A01 T00021044  RH  071%=      5-min Rain = 0
KMD1 170756Z 30001KT 00/M04 A301 RMK A01 T00031044  RH  071%=      5-min Rain = 0
KMD1 170757Z 31001KT 00/M05 A301 RMK A01 T00041045  RH  070%=      5-min Rain = 0
KMD1 170758Z 32001KT 01/M05 A301 RMK A01 T00051045  RH  069%=      5-min Rain = 0
KMD1 170759Z 32000KT 01/M05 A301 RMK A01 T00061046  RH  069%=      5-min Rain = 0
KMD1 170800Z 00000KT 01/M05 A301 RMK A01 T00061046  RH  068%=      5-min Rain = 0
KMD1 170801Z 00000KT 01/M05 A301 RMK A01 T00061048  RH  067%=      5-min Rain = 0
KMD1 170802Z 32000KT 01/M05 A301 RMK A01 T00071049  RH  066%=      5-min Rain = 0
KMD1 170803Z 00000KT 01/M05 A301 RMK A01 T00081050  RH  065%=      5-min Rain = 0
KMD1 170804Z 00000KT 01/M05 A301 RMK A01 T00091050  RH  065%=      5-min Rain = 0
KMD1 170805Z 00000KT 01/M05 A301 RMK A01 T00091050  RH  065%=      5-min Rain = 0
KMD1 170806Z 00000KT 01/M05 A301 RMK A01 T00091051  RH  064%=      5-min Rain = 0
KMD1 170807Z 00000KT 01/M05 A301 RMK A01 T00091051  RH  064%=      5-min Rain = 0
KMD1 170808Z 00000KT 01/M05 A301 RMK A01 T00091051  RH  064%=      5-min Rain = 0
KMD1 170809Z 25000KT 01/M05 A301 RMK A01 T00091052  RH  064%=      5-min Rain = 0
KMD1 170810Z 25001KT 01/M05 A301 RMK A01 T00091052  RH  064%=      5-min Rain = 0
KMD1 170811Z 25000KT 01/M05 A301 RMK A01 T00091051  RH  064%=      5-min Rain = 0
KMD1 170812Z 25000KT 01/M05 A301 RMK A01 T00091051  RH  064%=      5-min Rain = 0
KMD1 170813Z 00000KT 01/M05 A301 RMK A01 T00091051  RH  064%=      5-min Rain = 0
KMD1 170814Z 25000KT 01/M05 A301 RMK A01 T00091051  RH  064%=      5-min Rain = 0
KMD1 170815Z 00000KT 01/M05 A301 RMK A01 T00091049  RH  066%=      5-min Rain = 0
KMD1 170816Z 00000KT 01/M05 A301 RMK A01 T00081047  RH  067%=      5-min Rain = 0
KMD1 170817Z 25000KT 01/M05 A301 RMK A01 T00071047  RH  067%=      5-min Rain = 0
KMD1 170818Z 25001KT 01/M05 A301 RMK A01 T00061046  RH  068%=      5-min Rain = 0
KMD1 170819Z 25000KT 01/M05 A301 RMK A01 T00051046  RH  069%=      5-min Rain = 0
KMD1 170820Z 00000KT 00/M05 A301 RMK A01 T00041047  RH  069%=      5-min Rain = 0
KMD1 170821Z 00000KT 00/M05 A301 RMK A01 T00021050  RH  068%=      5-min Rain = 0
KMD1 170822Z 00000KT 00/M05 A301 RMK A01 T00011050  RH  069%=      5-min Rain = 0
KMD1 170823Z 25001KT M00/M05 A301 RMK A01 T10011050  RH  069%=      5-min Rain = 0
KMD1 170824Z 25001KT M00/M05 A301 RMK A01 T10021051  RH  070%=      5-min Rain = 0
KMD1 170825Z 25001KT M00/M05 A301 RMK A01 T10031051  RH  070%=      5-min Rain = 0
KMD1 170826Z 25001KT M00/M05 A301 RMK A01 T10031051  RH  070%=      5-min Rain = 0
KMD1 170827Z 25001KT M00/M05 A301 RMK A01 T10041052  RH  070%=      5-min Rain = 0
KMD1 170828Z 26001KT M00/M05 A301 RMK A01 T10041052  RH  070%=      5-min Rain = 0
KMD1 170829Z 27001KT M00/M05 A301 RMK A01 T10041052  RH  070%=      5-min Rain = 0
KMD1 170830Z 27001KT M00/M05 A301 RMK A01 T10041052  RH  070%=      5-min Rain = 0
KMD1 170831Z 27002KT M00/M05 A301 RMK A01 T10041052  RH  070%=      5-min Rain = 0
KMD1 170832Z 27002KT M00/M05 A301 RMK A01 T10041053  RH  069%=      5-min Rain = 0
KMD1 170833Z 26002KT M00/M05 A301 RMK A01 T10031053  RH  069%=      5-min Rain = 0
KMD1 170834Z 25003KT M00/M05 A301 RMK A01 T10031053  RH  069%=      5-min Rain = 0
KMD1 170835Z 24003KT M00/M05 A301 RMK A01 T10031054  RH  069%=      5-min Rain = 0
KMD1 170836Z 24003KT M00/M05 A301 RMK A01 T10031054  RH  069%=      5-min Rain = 0
KMD1 170837Z 23003KT M00/M05 A301 RMK A01 T10041053  RH  069%=      5-min Rain = 0
KMD1 170838Z 23003KT M00/M05 A301 RMK A01 T10041052  RH  070%=      5-min Rain = 0
KMD1 170839Z 23003KT M00/M05 A301 RMK A01 T10041051  RH  071%=      5-min Rain = 0
KMD1 170840Z 24003KT M01/M05 A301 RMK A01 T10051050  RH  071%=      5-min Rain = 0
KMD1 170841Z 24003KT M01/M05 A301 RMK A01 T10051051  RH  071%=      5-min Rain = 0
KMD1 170842Z 23003KT M01/M05 A301 RMK A01 T10051052  RH  071%=      5-min Rain = 0
KMD1 170843Z 23003KT M01/M05 A301 RMK A01 T10061052  RH  071%=      5-min Rain = 0
KMD1 170844Z 23003KT M01/M05 A301 RMK A01 T10061051  RH  072%=      5-min Rain = 0
KMD1 170845Z 24003KT M01/M05 A301 RMK A01 T10061050  RH  072%=      5-min Rain = 0
KMD1 170846Z 24003KT M01/M05 A301 RMK A01 T10071050  RH  072%=      5-min Rain = 0
KMD1 170847Z 24003KT M01/M05 A301 RMK A01 T10071050  RH  072%=      5-min Rain = 0
KMD1 170848Z 24003KT M01/M05 A301 RMK A01 T10071052  RH  072%=      5-min Rain = 0
KMD1 170849Z 24003KT M01/M05 A301 RMK A01 T10081052  RH  072%=      5-min Rain = 0
KMD1 170850Z 24003KT M01/M05 A301 RMK A01 T10071052  RH  072%=      5-min Rain = 0
KMD1 170851Z 23004KT M01/M05 A301 RMK A01 T10071053  RH  071%=      5-min Rain = 0
KMD1 170852Z 23004KT M01/M05 A301 RMK A01 T10071052  RH  071%=      5-min Rain = 0
KMD1 170853Z 23004KT M01/M05 A301 RMK A01 T10071052  RH  072%=      5-min Rain = 0
KMD1 170854Z 23004KT M01/M05 A301 RMK A01 T10071051  RH  072%=      5-min Rain = 0
KMD1 170855Z 24004KT M01/M05 A301 RMK A01 T10071051  RH  072%=      5-min Rain = 0
KMD1 170856Z 24004KT M01/M05 A301 RMK A01 T10071051  RH  072%=      5-min Rain = 0
KMD1 170857Z 24005KT M01/M05 A3011 RMK A01 T10071051  RH  072%=      5-min Rain = 0
KMD1 170858Z 24005KT M01/M05 A3011 RMK A01 T10061051  RH  072%=      5-min Rain = 0
KMD1 170859Z 23005KT M01/M05 A3011 RMK A01 T10051052  RH  071%=      5-min Rain = 0
KMD1 170900Z 23006KT M01/M05 A3011 RMK A01 T10051052  RH  071%=      5-min Rain = 0
KMD1 170901Z 22006KT M01/M05 A3011 RMK A01 T10051052  RH  070%=      5-min Rain = 0
KMD1 170902Z 23007KT M01/M05 A3011 RMK A01 T10051052  RH  070%=      5-min Rain = 0
KMD1 170903Z 23006KT M00/M05 A3011 RMK A01 T10041052  RH  070%=      5-min Rain = 0
KMD1 170904Z 23006KT M00/M05 A3011 RMK A01 T10041052  RH  070%=      5-min Rain = 0
KMD1 170905Z 24006KT M00/M05 A3011 RMK A01 T10021052  RH  069%=      5-min Rain = 0
KMD1 170906Z 23006KT M00/M05 A3011 RMK A01 T10011052  RH  068%=      5-min Rain = 0
KMD1 170907Z 24005KT M00/M05 A3011 RMK A01 T10011053  RH  068%=      5-min Rain = 0
KMD1 170908Z 24005KT M00/M05 A3011 RMK A01 T10011053  RH  068%=      5-min Rain = 0
KMD1 170909Z 23005KT M00/M05 A3011 RMK A01 T10021053  RH  068%=      5-min Rain = 0
KMD1 170910Z 23005KT M00/M05 A3011 RMK A01 T10021053  RH  069%=      5-min Rain = 0
KMD1 170911Z 23005KT M00/M05 A3011 RMK A01 T10021053  RH  069%=      5-min Rain = 0
KMD1 170912Z 23005KT M00/M05 A3011 RMK A01 T10031053  RH  069%=      5-min Rain = 0
KMD1 170913Z 24005KT M00/M05 A3011 RMK A01 T10031054  RH  069%=      5-min Rain = 0
KMD1 170914Z 23005KT M00/M05 A3011 RMK A01 T10041054  RH  069%=      5-min Rain = 0
KMD1 170915Z 23004KT M00/M05 A3011 RMK A01 T10041054  RH  069%=      5-min Rain = 0
KMD1 170916Z 24004KT M00/M05 A3011 RMK A01 T10041054  RH  069%=      5-min Rain = 0
KMD1 170917Z 25003KT M01/M05 A3011 RMK A01 T10051054  RH  070%=      5-min Rain = 0
KMD1 170918Z 25003KT M01/M05 A3011 RMK A01 T10051053  RH  070%=      5-min Rain = 0
KMD1 170919Z 26002KT M01/M05 A3011 RMK A01 T10061054  RH  070%=      5-min Rain = 0
KMD1 170920Z 26002KT M01/M05 A3011 RMK A01 T10061054  RH  070%=      5-min Rain = 0
KMD1 170921Z 25002KT M01/M05 A3011 RMK A01 T10061054  RH  070%=      5-min Rain = 0
KMD1 170922Z 25003KT M01/M05 A3011 RMK A01 T10061054  RH  070%=      5-min Rain = 0
KMD1 170923Z 24003KT M01/M05 A3011 RMK A01 T10071054  RH  071%=      5-min Rain = 0
KMD1 170924Z 23003KT M01/M05 A3011 RMK A01 T10071054  RH  071%=      5-min Rain = 0
KMD1 170925Z 23003KT M01/M05 A3011 RMK A01 T10081054  RH  071%=      5-min Rain = 0
KMD1 170926Z 23003KT M01/M05 A3011 RMK A01 T10091053  RH  072%=      5-min Rain = 0
KMD1 170927Z 23002KT M01/M05 A3011 RMK A01 T10101053  RH  072%=      5-min Rain = 0
KMD1 170928Z 23003KT M01/M05 A3011 RMK A01 T10101053  RH  073%=      5-min Rain = 0
KMD1 170929Z 23003KT M01/M05 A3011 RMK A01 T10111052  RH  074%=      5-min Rain = 0
KMD1 170930Z 24002KT M01/M05 A3011 RMK A01 T10111051  RH  074%=      5-min Rain = 0
KMD1 170931Z 24002KT M01/M05 A3011 RMK A01 T10111051  RH  074%=      5-min Rain = 0
KMD1 170932Z 24002KT M01/M05 A3011 RMK A01 T10121051  RH  075%=      5-min Rain = 0
KMD1 170933Z 23002KT M01/M05 A3011 RMK A01 T10121051  RH  075%=      5-min Rain = 0
KMD1 170934Z 25002KT M01/M05 A3011 RMK A01 T10131052  RH  075%=      5-min Rain = 0
KMD1 170935Z 26002KT M01/M05 A3012 RMK A01 T10121051  RH  075%=      5-min Rain = 0
KMD1 170936Z 27002KT M01/M05 A3012 RMK A01 T10131051  RH  075%=      5-min Rain = 0
KMD1 170937Z 28003KT M01/M05 A3012 RMK A01 T10131050  RH  075%=      5-min Rain = 0
KMD1 170938Z 28003KT M01/M05 A3012 RMK A01 T10131050  RH  076%=      5-min Rain = 0
KMD1 170939Z 28003KT M02/M05 A3012 RMK A01 T10151051  RH  076%=      5-min Rain = 0
KMD1 170940Z 28002KT M02/M05 A3012 RMK A01 T10161052  RH  076%=      5-min Rain = 0
KMD1 170941Z 27003KT M02/M05 A3012 RMK A01 T10181054  RH  076%=      5-min Rain = 0
KMD1 170942Z 26003KT M02/M06 A3012 RMK A01 T10191055  RH  077%=      5-min Rain = 0
KMD1 170943Z 26002KT M02/M05 A3012 RMK A01 T10211054  RH  078%=      5-min Rain = 0
KMD1 170944Z 25002KT M02/M05 A3012 RMK A01 T10211053  RH  079%=      5-min Rain = 0
KMD1 170945Z 25002KT M02/M05 A3012 RMK A01 T10211051  RH  080%=      5-min Rain = 0
KMD1 170946Z 24002KT M02/M05 A3012 RMK A01 T10201049  RH  080%=      5-min Rain = 0
KMD1 170947Z 23002KT M02/M05 A3012 RMK A01 T10191048  RH  081%=      5-min Rain = 0
KMD1 170948Z 23002KT M02/M05 A3012 RMK A01 T10191048  RH  081%=      5-min Rain = 0
KMD1 170949Z 24002KT M02/M05 A3012 RMK A01 T10191048  RH  081%=      5-min Rain = 0
KMD1 170950Z 24001KT M02/M05 A3011 RMK A01 T10191048  RH  080%=      5-min Rain = 0
KMD1 170951Z 24002KT M02/M05 A3011 RMK A01 T10181048  RH  080%=      5-min Rain = 0
KMD1 170952Z 26001KT M02/M05 A3011 RMK A01 T10181048  RH  080%=      5-min Rain = 0
KMD1 170953Z 26001KT M02/M05 A3011 RMK A01 T10171048  RH  079%=      5-min Rain = 0
KMD1 170954Z 26001KT M02/M05 A3011 RMK A01 T10161049  RH  079%=      5-min Rain = 0
KMD1 170955Z 26001KT M02/M05 A3011 RMK A01 T10161049  RH  078%=      5-min Rain = 0
KMD1 170956Z 26000KT M02/M05 A3011 RMK A01 T10171050  RH  078%=      5-min Rain = 0
KMD1 170957Z 00000KT M02/M05 A3011 RMK A01 T10191053  RH  077%=      5-min Rain = 0
KMD1 170958Z 00000KT M02/M06 A3011 RMK A01 T10221055  RH  078%=      5-min Rain = 0
KMD1 170959Z 00000KT M02/M05 A3011 RMK A01 T10221054  RH  079%=      5-min Rain = 0
KMD1 171000Z 21001KT M02/M05 A3011 RMK A01 T10221053  RH  079%=      5-min Rain = 0
KMD1 171001Z 21002KT M02/M05 A3012 RMK A01 T10221053  RH  079%=      5-min Rain = 0
KMD1 171002Z 21002KT M02/M05 A3012 RMK A01 T10231053  RH  080%=      5-min Rain = 0
KMD1 171003Z 22002KT M02/M05 A3012 RMK A01 T10231053  RH  080%=      5-min Rain = 0
KMD1 171004Z 23002KT M02/M05 A3012 RMK A01 T10231052  RH  080%=      5-min Rain = 0
KMD1 171005Z 23002KT M02/M05 A3011 RMK A01 T10231052  RH  081%=      5-min Rain = 0
KMD1 171006Z 24003KT M02/M05 A3011 RMK A01 T10231051  RH  081%=      5-min Rain = 0
KMD1 171007Z 25003KT M02/M05 A3011 RMK A01 T10221051  RH  081%=      5-min Rain = 0
KMD1 171008Z 25003KT M02/M05 A3011 RMK A01 T10221050  RH  081%=      5-min Rain = 0
KMD1 171009Z 26002KT M02/M05 A3011 RMK A01 T10211050  RH  081%=      5-min Rain = 0
KMD1 171010Z 26002KT M02/M05 A3011 RMK A01 T10211050  RH  080%=      5-min Rain = 0
KMD1 171011Z 27002KT M02/M05 A3011 RMK A01 T10211050  RH  080%=      5-min Rain = 0
KMD1 171012Z 27001KT M02/M05 A3011 RMK A01 T10201051  RH  079%=      5-min Rain = 0
KMD1 171013Z 27001KT M02/M05 A3011 RMK A01 T10211052  RH  079%=      5-min Rain = 0
KMD1 171014Z 27001KT M02/M05 A3011 RMK A01 T10211053  RH  079%=      5-min Rain = 0
KMD1 171015Z 23001KT M02/M05 A3011 RMK A01 T10221053  RH  079%=      5-min Rain = 0
KMD1 171016Z 23002KT M02/M05 A3011 RMK A01 T10221053  RH  079%=      5-min Rain = 0
KMD1 171017Z 24002KT M02/M05 A3011 RMK A01 T10231053  RH  079%=      5-min Rain = 0
KMD1 171018Z 25002KT M02/M05 A3011 RMK A01 T10221053  RH  080%=      5-min Rain = 0
KMD1 171019Z 26002KT M02/M05 A3011 RMK A01 T10221052  RH  080%=      5-min Rain = 0
KMD1 171020Z 26002KT M02/M05 A3011 RMK A01 T10211052  RH  079%=      5-min Rain = 0
KMD1 171021Z 26003KT M02/M05 A3011 RMK A01 T10211053  RH  079%=      5-min Rain = 0
KMD1 171022Z 26003KT M02/M05 A3011 RMK A01 T10211054  RH  078%=      5-min Rain = 0
KMD1 171023Z 26004KT M02/M05 A3011 RMK A01 T10211054  RH  078%=      5-min Rain = 0
KMD1 171024Z 26003KT M02/M05 A3011 RMK A01 T10221054  RH  079%=      5-min Rain = 0
KMD1 171025Z 26003KT M02/M05 A3011 RMK A01 T10211054  RH  078%=      5-min Rain = 0
KMD1 171026Z 26003KT M02/M06 A3011 RMK A01 T10231056  RH  078%=      5-min Rain = 0
KMD1 171027Z 26003KT M03/M06 A3011 RMK A01 T10261059  RH  078%=      5-min Rain = 0
KMD1 171028Z 25003KT M03/M06 A3011 RMK A01 T10281060  RH  079%=      5-min Rain = 0
KMD1 171029Z 25002KT M03/M06 A3011 RMK A01 T10301058  RH  081%=      5-min Rain = 0
KMD1 171030Z 25003KT M03/M06 A3011 RMK A01 T10301056  RH  082%=      5-min Rain = 0
KMD1 171031Z 25003KT M03/M06 A3011 RMK A01 T10301056  RH  083%=      5-min Rain = 0
KMD1 171032Z 25002KT M03/M06 A3011 RMK A01 T10301055  RH  083%=      5-min Rain = 0
KMD1 171033Z 25002KT M03/M06 A3011 RMK A01 T10301055  RH  083%=      5-min Rain = 0
KMD1 171034Z 25002KT M03/M06 A3011 RMK A01 T10301055  RH  083%=      5-min Rain = 0
KMD1 171035Z 25002KT M03/M05 A3011 RMK A01 T10301054  RH  083%=      5-min Rain = 0
KMD1 171036Z 25002KT M03/M05 A3011 RMK A01 T10291053  RH  084%=      5-min Rain = 0
KMD1 171037Z 25002KT M03/M05 A3011 RMK A01 T10291053  RH  084%=      5-min Rain = 0
KMD1 171038Z 25002KT M03/M05 A3011 RMK A01 T10291053  RH  084%=      5-min Rain = 0
KMD1 171039Z 25002KT M03/M05 A3011 RMK A01 T10291053  RH  084%=      5-min Rain = 0
KMD1 171040Z 25002KT M03/M05 A3011 RMK A01 T10281052  RH  084%=      5-min Rain = 0
KMD1 171041Z 26002KT M03/M05 A3011 RMK A01 T10291053  RH  083%=      5-min Rain = 0
KMD1 171042Z 26002KT M03/M05 A3011 RMK A01 T10291054  RH  083%=      5-min Rain = 0
KMD1 171043Z 26002KT M03/M06 A3011 RMK A01 T10291055  RH  083%=      5-min Rain = 0
KMD1 171044Z 26002KT M03/M06 A3011 RMK A01 T10291055  RH  083%=      5-min Rain = 0
KMD1 171045Z 26002KT M03/M06 A3011 RMK A01 T10291055  RH  082%=      5-min Rain = 0
KMD1 171046Z 26002KT M03/M06 A3011 RMK A01 T10281056  RH  082%=      5-min Rain = 0
KMD1 171047Z 26002KT M03/M06 A3011 RMK A01 T10281057  RH  081%=      5-min Rain = 0
KMD1 171048Z 26002KT M03/M06 A3011 RMK A01 T10291058  RH  081%=      5-min Rain = 0
KMD1 171049Z 26002KT M03/M06 A3011 RMK A01 T10291058  RH  081%=      5-min Rain = 0
KMD1 171050Z 26002KT M03/M06 A3011 RMK A01 T10291057  RH  081%=      5-min Rain = 0
KMD1 171051Z 26002KT M03/M06 A3011 RMK A01 T10301057  RH  081%=      5-min Rain = 0
KMD1 171052Z 26002KT M03/M06 A3011 RMK A01 T10301057  RH  081%=      5-min Rain = 0
KMD1 171053Z 26002KT M03/M06 A3011 RMK A01 T10291057  RH  082%=      5-min Rain = 0
KMD1 171054Z 26002KT M03/M06 A3011 RMK A01 T10291057  RH  082%=      5-min Rain = 0
KMD1 171055Z 27002KT M03/M06 A3011 RMK A01 T10291057  RH  081%=      5-min Rain = 0
KMD1 171056Z 27002KT M03/M06 A3011 RMK A01 T10291056  RH  081%=      5-min Rain = 0
KMD1 171057Z 27002KT M03/M06 A3011 RMK A01 T10291056  RH  081%=      5-min Rain = 0
KMD1 171058Z 27002KT M03/M06 A301 RMK A01 T10291057  RH  081%=      5-min Rain = 0
KMD1 171059Z 27003KT M03/M06 A301 RMK A01 T10281057  RH  081%=      5-min Rain = 0
KMD1 171100Z 27003KT M03/M06 A301 RMK A01 T10281057  RH  080%=      5-min Rain = 0
KMD1 171101Z 27002KT M03/M06 A301 RMK A01 T10281057  RH  080%=      5-min Rain = 0
KMD1 171102Z 27002KT M03/M06 A301 RMK A01 T10281057  RH  080%=      5-min Rain = 0
KMD1 171103Z 27002KT M03/M06 A301 RMK A01 T10271057  RH  080%=      5-min Rain = 0
KMD1 171104Z 27002KT M03/M06 A301 RMK A01 T10271057  RH  080%=      5-min Rain = 0
KMD1 171105Z 27002KT M03/M06 A301 RMK A01 T10271057  RH  080%=      5-min Rain = 0
KMD1 171106Z 27002KT M03/M06 A3011 RMK A01 T10271057  RH  080%=      5-min Rain = 0
KMD1 171107Z 27003KT M03/M06 A3011 RMK A01 T10271057  RH  080%=      5-min Rain = 0
KMD1 171108Z 26003KT M03/M06 A3011 RMK A01 T10271057  RH  080%=      5-min Rain = 0
KMD1 171109Z 27003KT M03/M06 A3011 RMK A01 T10271057  RH  080%=      5-min Rain = 0
KMD1 171110Z 27003KT M03/M06 A3011 RMK A01 T10271056  RH  080%=      5-min Rain = 0
KMD1 171111Z 26004KT M03/M06 A3011 RMK A01 T10271055  RH  081%=      5-min Rain = 0
KMD1 171112Z 25003KT M03/M06 A3011 RMK A01 T10271055  RH  081%=      5-min Rain = 0
KMD1 171113Z 26003KT M03/M06 A3011 RMK A01 T10271055  RH  081%=      5-min Rain = 0
KMD1 171114Z 27003KT M03/M06 A3011 RMK A01 T10281056  RH  081%=      5-min Rain = 0
KMD1 171115Z 27003KT M03/M06 A3011 RMK A01 T10281056  RH  082%=      5-min Rain = 0
KMD1 171116Z 27003KT M03/M06 A3011 RMK A01 T10281055  RH  082%=      5-min Rain = 0
KMD1 171117Z 26003KT M03/M05 A3011 RMK A01 T10281054  RH  082%=      5-min Rain = 0
KMD1 171118Z 27003KT M03/M05 A3011 RMK A01 T10281054  RH  082%=      5-min Rain = 0
KMD1 171119Z 28003KT M03/M06 A3011 RMK A01 T10281055  RH  081%=      5-min Rain = 0
KMD1 171120Z 28003KT M03/M06 A3011 RMK A01 T10281055  RH  081%=      5-min Rain = 0
KMD1 171121Z 28003KT M03/M06 A3011 RMK A01 T10281055  RH  082%=      5-min Rain = 0
KMD1 171122Z 29003KT M03/M06 A3011 RMK A01 T10281056  RH  082%=      5-min Rain = 0
KMD1 171123Z 30003KT M03/M06 A3011 RMK A01 T10291057  RH  081%=      5-min Rain = 0
KMD1 171124Z 31003KT M03/M06 A3011 RMK A01 T10301057  RH  082%=      5-min Rain = 0
KMD1 171125Z 30002KT M03/M06 A3011 RMK A01 T10311057  RH  083%=      5-min Rain = 0
KMD1 171126Z 29002KT M03/M06 A3011 RMK A01 T10311056  RH  083%=      5-min Rain = 0
KMD1 171127Z 28002KT M03/M06 A3011 RMK A01 T10311055  RH  083%=      5-min Rain = 0
KMD1 171128Z 28002KT M03/M06 A301 RMK A01 T10321056  RH  084%=      5-min Rain = 0
KMD1 171129Z 28002KT M03/M06 A301 RMK A01 T10311055  RH  084%=      5-min Rain = 0
KMD1 171130Z 27002KT M03/M05 A301 RMK A01 T10311054  RH  084%=      5-min Rain = 0
KMD1 171131Z 27002KT M03/M06 A301 RMK A01 T10301055  RH  083%=      5-min Rain = 0
KMD1 171132Z 27002KT M03/M05 A3011 RMK A01 T10301054  RH  083%=      5-min Rain = 0
KMD1 171133Z 27002KT M03/M05 A3011 RMK A01 T10301054  RH  083%=      5-min Rain = 0
KMD1 171134Z 28002KT M03/M05 A3011 RMK A01 T10291054  RH  083%=      5-min Rain = 0
KMD1 171135Z 29002KT M03/M05 A3011 RMK A01 T10291054  RH  083%=      5-min Rain = 0
KMD1 171136Z 30002KT M03/M05 A3011 RMK A01 T10281054  RH  082%=      5-min Rain = 0
KMD1 171137Z 30002KT M03/M06 A3011 RMK A01 T10291055  RH  082%=      5-min Rain = 0
KMD1 171138Z 29002KT M03/M06 A3011 RMK A01 T10291055  RH  082%=      5-min Rain = 0
KMD1 171139Z 28002KT M03/M06 A3011 RMK A01 T10291055  RH  082%=      5-min Rain = 0
KMD1 171140Z 27002KT M03/M06 A3011 RMK A01 T10291055  RH  082%=      5-min Rain = 0
KMD1 171141Z 27003KT M03/M05 A3011 RMK A01 T10281054  RH  082%=      5-min Rain = 0
KMD1 171142Z 27002KT M03/M06 A3011 RMK A01 T10281055  RH  082%=      5-min Rain = 0
KMD1 171143Z 26002KT M03/M06 A3011 RMK A01 T10271055  RH  081%=      5-min Rain = 0
KMD1 171144Z 26002KT M03/M06 A3011 RMK A01 T10271055  RH  081%=      5-min Rain = 0
KMD1 171145Z 26002KT M03/M06 A3011 RMK A01 T10271055  RH  081%=      5-min Rain = 0
KMD1 171146Z 26003KT M03/M06 A3011 RMK A01 T10271055  RH  081%=      5-min Rain = 0
KMD1 171147Z 26002KT M03/M06 A3011 RMK A01 T10281055  RH  082%=      5-min Rain = 0
KMD1 171148Z 25002KT M03/M06 A3011 RMK A01 T10291055  RH  082%=      5-min Rain = 0
KMD1 171149Z 25002KT M03/M06 A3011 RMK A01 T10301055  RH  082%=      5-min Rain = 0
KMD1 171150Z 25002KT M03/M06 A3011 RMK A01 T10311056  RH  083%=      5-min Rain = 0
KMD1 171151Z 25002KT M03/M06 A3011 RMK A01 T10311056  RH  083%=      5-min Rain = 0
KMD1 171152Z 25002KT M03/M06 A3011 RMK A01 T10321056  RH  084%=      5-min Rain = 0
KMD1 171153Z 26002KT M03/M06 A3011 RMK A01 T10331056  RH  084%=      5-min Rain = 0
KMD1 171154Z 27002KT M03/M06 A3011 RMK A01 T10341056  RH  085%=      5-min Rain = 0
KMD1 171155Z 27002KT M03/M06 A3011 RMK A01 T10341055  RH  085%=      5-min Rain = 0
KMD1 171156Z 27003KT M03/M06 A3011 RMK A01 T10341055  RH  086%=      5-min Rain = 0
KMD1 171157Z 27002KT M04/M06 A3011 RMK A01 T10351056  RH  086%=      5-min Rain = 0
KMD1 171158Z 27003KT M04/M06 A3011 RMK A01 T10361056  RH  086%=      5-min Rain = 0
KMD1 171159Z 27003KT M04/M06 A3011 RMK A01 T10371056  RH  087%=      5-min Rain = 0
KMD1 171200Z 27003KT M04/M06 A3012 RMK A01 T10371055  RH  087%=      5-min Rain = 0
KMD1 171201Z 27003KT M04/M06 A3012 RMK A01 T10371055  RH  087%=      5-min Rain = 0
KMD1 171202Z 27002KT M04/M05 A3012 RMK A01 T10361054  RH  088%=      5-min Rain = 0
KMD1 171203Z 27003KT M04/M05 A3011 RMK A01 T10361054  RH  088%=      5-min Rain = 0
KMD1 171204Z 27003KT M04/M05 A3011 RMK A01 T10361053  RH  088%=      5-min Rain = 0
KMD1 171205Z 27003KT M04/M05 A3011 RMK A01 T10361054  RH  088%=      5-min Rain = 0
KMD1 171206Z 27003KT M04/M05 A3012 RMK A01 T10361054  RH  088%=      5-min Rain = 0
KMD1 171207Z 27002KT M04/M05 A3012 RMK A01 T10361053  RH  088%=      5-min Rain = 0
KMD1 171208Z 27002KT M04/M05 A3012 RMK A01 T10361053  RH  088%=      5-min Rain = 0
KMD1 171209Z 27002KT M04/M05 A3012 RMK A01 T10361053  RH  088%=      5-min Rain = 0
KMD1 171210Z 27002KT M04/M05 A3012 RMK A01 T10351052  RH  088%=      5-min Rain = 0
KMD1 171211Z 27002KT M04/M05 A3012 RMK A01 T10351053  RH  088%=      5-min Rain = 0
KMD1 171212Z 27002KT M04/M05 A3012 RMK A01 T10361054  RH  087%=      5-min Rain = 0
KMD1 171213Z 27002KT M04/M05 A3012 RMK A01 T10361054  RH  087%=      5-min Rain = 0
KMD1 171214Z 27002KT M04/M05 A3012 RMK A01 T10361054  RH  087%=      5-min Rain = 0
KMD1 171215Z 27002KT M04/M06 A3012 RMK A01 T10361055  RH  087%=      5-min Rain = 0
KMD1 171216Z 27003KT M04/M06 A3012 RMK A01 T10361055  RH  087%=      5-min Rain = 0
KMD1 171217Z 27003KT M04/M06 A3012 RMK A01 T10361055  RH  087%=      5-min Rain = 0
KMD1 171218Z 27003KT M04/M06 A3012 RMK A01 T10361056  RH  087%=      5-min Rain = 0
KMD1 171219Z 27003KT M04/M06 A3012 RMK A01 T10361056  RH  086%=      5-min Rain = 0
KMD1 171220Z 27003KT M04/M06 A3013 RMK A01 T10361056  RH  086%=      5-min Rain = 0
KMD1 171221Z 27003KT M04/M06 A3013 RMK A01 T10351056  RH  086%=      5-min Rain = 0
KMD1 171222Z 27002KT M04/M06 A3013 RMK A01 T10351056  RH  086%=      5-min Rain = 0
KMD1 171223Z 27003KT M04/M06 A3013 RMK A01 T10351056  RH  085%=      5-min Rain = 0
KMD1 171224Z 27003KT M04/M06 A3013 RMK A01 T10351056  RH  085%=      5-min Rain = 0
KMD1 171225Z 27002KT M03/M06 A3013 RMK A01 T10341056  RH  085%=      5-min Rain = 0
KMD1 171226Z 27002KT M04/M06 A3013 RMK A01 T10351057  RH  085%=      5-min Rain = 0
KMD1 171227Z 28002KT M04/M06 A3013 RMK A01 T10351058  RH  085%=      5-min Rain = 0
KMD1 171228Z 28002KT M04/M06 A3013 RMK A01 T10361058  RH  085%=      5-min Rain = 0
KMD1 171229Z 28001KT M04/M06 A3013 RMK A01 T10371060  RH  084%=      5-min Rain = 0
KMD1 171230Z 28001KT M04/M06 A3013 RMK A01 T10381061  RH  084%=      5-min Rain = 0
KMD1 171231Z 29001KT M04/M06 A3013 RMK A01 T10381059  RH  085%=      5-min Rain = 0
KMD1 171232Z 30001KT M04/M06 A3013 RMK A01 T10371058  RH  085%=      5-min Rain = 0
KMD1 171233Z 31002KT M04/M06 A3013 RMK A01 T10361058  RH  085%=      5-min Rain = 0
KMD1 171234Z 30001KT M04/M06 A3013 RMK A01 T10361057  RH  085%=      5-min Rain = 0
KMD1 171235Z 30001KT M04/M06 A3013 RMK A01 T10361058  RH  084%=      5-min Rain = 0
KMD1 171236Z 30001KT M04/M06 A3013 RMK A01 T10371060  RH  084%=      5-min Rain = 0
KMD1 171237Z 30001KT M04/M06 A3013 RMK A01 T10381061  RH  084%=      5-min Rain = 0
KMD1 171238Z 30001KT M04/M06 A3013 RMK A01 T10381061  RH  084%=      5-min Rain = 0
KMD1 171239Z 30001KT M04/M06 A3013 RMK A01 T10381061  RH  084%=      5-min Rain = 0
KMD1 171240Z 29001KT M04/M06 A3013 RMK A01 T10381061  RH  084%=      5-min Rain = 0
KMD1 171241Z 27002KT M04/M06 A3013 RMK A01 T10371061  RH  084%=      5-min Rain = 0
KMD1 171242Z 27001KT M04/M06 A3013 RMK A01 T10371061  RH  084%=      5-min Rain = 0
KMD1 171243Z 26001KT M04/M06 A3013 RMK A01 T10371061  RH  084%=      5-min Rain = 0
KMD1 171244Z 26001KT M04/M06 A3013 RMK A01 T10371061  RH  083%=      5-min Rain = 0
KMD1 171245Z 26001KT M04/M06 A3013 RMK A01 T10381062  RH  083%=      5-min Rain = 0
KMD1 171246Z 26001KT M04/M06 A3013 RMK A01 T10381063  RH  083%=      5-min Rain = 0
KMD1 171247Z 26001KT M04/M06 A3013 RMK A01 T10391063  RH  083%=      5-min Rain = 0
KMD1 171248Z 26001KT M04/M06 A3013 RMK A01 T10391063  RH  083%=      5-min Rain = 0
KMD1 171249Z 26001KT M04/M06 A3014 RMK A01 T10391063  RH  083%=      5-min Rain = 0
KMD1 171250Z 26000KT M04/M06 A3014 RMK A01 T10391062  RH  084%=      5-min Rain = 0
KMD1 171251Z 26000KT M04/M06 A3014 RMK A01 T10401063  RH  084%=      5-min Rain = 0
KMD1 171252Z 26000KT M04/M06 A3014 RMK A01 T10391063  RH  084%=      5-min Rain = 0
KMD1 171253Z 26000KT M04/M06 A3014 RMK A01 T10391062  RH  084%=      5-min Rain = 0
KMD1 171254Z 26000KT M04/M06 A3014 RMK A01 T10391061  RH  084%=      5-min Rain = 0
KMD1 171255Z 00000KT M04/M06 A3014 RMK A01 T10381061  RH  084%=      5-min Rain = 0
KMD1 171256Z 26000KT M04/M06 A3014 RMK A01 T10391062  RH  084%=      5-min Rain = 0
KMD1 171257Z 26001KT M04/M06 A3014 RMK A01 T10391062  RH  084%=      5-min Rain = 0
KMD1 171258Z 26001KT M04/M06 A3014 RMK A01 T10391062  RH  084%=      5-min Rain = 0
KMD1 171259Z 28000KT M04/M06 A3014 RMK A01 T10391062  RH  084%=      5-min Rain = 0
KMD1 171300Z 28000KT M04/M06 A3014 RMK A01 T10391062  RH  084%=      5-min Rain = 0
KMD1 171301Z 28001KT M04/M06 A3014 RMK A01 T10391061  RH  085%=      5-min Rain = 0
KMD1 171302Z 28001KT M04/M06 A3014 RMK A01 T10381061  RH  085%=      5-min Rain = 0
KMD1 171303Z 28001KT M04/M06 A3015 RMK A01 T10381061  RH  084%=      5-min Rain = 0
KMD1 171304Z 28001KT M04/M06 A3015 RMK A01 T10381061  RH  084%=      5-min Rain = 0
KMD1 171305Z 28000KT M04/M06 A3014 RMK A01 T10391062  RH  084%=      5-min Rain = 0
KMD1 171306Z 28000KT M04/M06 A3014 RMK A01 T10391063  RH  084%=      5-min Rain = 0
KMD1 171307Z 28001KT M04/M06 A3014 RMK A01 T10401063  RH  084%=      5-min Rain = 0
KMD1 171308Z 26001KT M04/M06 A3015 RMK A01 T10401063  RH  084%=      5-min Rain = 0
KMD1 171309Z 26001KT M04/M06 A3015 RMK A01 T10401063  RH  084%=      5-min Rain = 0
KMD1 171310Z 26002KT M04/M06 A3015 RMK A01 T10401063  RH  085%=      5-min Rain = 0
KMD1 171311Z 26002KT M04/M06 A3015 RMK A01 T10411063  RH  085%=      5-min Rain = 0
KMD1 171312Z 26002KT M04/M06 A3015 RMK A01 T10401062  RH  085%=      5-min Rain = 0
KMD1 171313Z 27002KT M04/M06 A3015 RMK A01 T10411062  RH  085%=      5-min Rain = 0
KMD1 171314Z 27003KT M04/M06 A3015 RMK A01 T10411062  RH  085%=      5-min Rain = 0
KMD1 171315Z 27002KT M04/M06 A3015 RMK A01 T10411062  RH  086%=      5-min Rain = 0
KMD1 171316Z 26002KT M04/M06 A3015 RMK A01 T10411062  RH  086%=      5-min Rain = 0
KMD1 171317Z 27003KT M04/M06 A3015 RMK A01 T10411061  RH  086%=      5-min Rain = 0
KMD1 171318Z 28003KT M04/M06 A3015 RMK A01 T10411061  RH  086%=      5-min Rain = 0
KMD1 171319Z 28003KT M04/M06 A3015 RMK A01 T10411061  RH  086%=      5-min Rain = 0
KMD1 171320Z 28003KT M04/M06 A3015 RMK A01 T10411061  RH  086%=      5-min Rain = 0
KMD1 171321Z 28003KT M04/M06 A3015 RMK A01 T10411062  RH  086%=      5-min Rain = 0
KMD1 171322Z 28002KT M04/M06 A3015 RMK A01 T10431064  RH  086%=      5-min Rain = 0
KMD1 171323Z 28002KT M04/M07 A3015 RMK A01 T10441065  RH  086%=      5-min Rain = 0
KMD1 171324Z 29002KT M05/M07 A3015 RMK A01 T10451065  RH  086%=      5-min Rain = 0
KMD1 171325Z 28002KT M05/M07 A3015 RMK A01 T10461066  RH  086%=      5-min Rain = 0
KMD1 171326Z 29003KT M05/M07 A3015 RMK A01 T10471066  RH  086%=      5-min Rain = 0
KMD1 171327Z 29003KT M05/M07 A3015 RMK A01 T10471066  RH  087%=      5-min Rain = 0
KMD1 171328Z 29003KT M05/M07 A3015 RMK A01 T10481066  RH  087%=      5-min Rain = 0
KMD1 171329Z 29003KT M05/M07 A3015 RMK A01 T10481066  RH  087%=      5-min Rain = 0
KMD1 171330Z 28003KT M05/M06 A3015 RMK A01 T10471064  RH  088%=      5-min Rain = 0
KMD1 171331Z 28003KT M05/M06 A3015 RMK A01 T10461063  RH  088%=      5-min Rain = 0
KMD1 171332Z 28003KT M05/M06 A3015 RMK A01 T10461063  RH  088%=      5-min Rain = 0
KMD1 171333Z 27003KT M05/M06 A3015 RMK A01 T10461063  RH  088%=      5-min Rain = 0
KMD1 171334Z 27003KT M05/M06 A3015 RMK A01 T10461063  RH  088%=      5-min Rain = 0
KMD1 171335Z 27004KT M05/M06 A3015 RMK A01 T10451061  RH  088%=      5-min Rain = 0
KMD1 171336Z 27004KT M04/M06 A3015 RMK A01 T10431059  RH  088%=      5-min Rain = 0
KMD1 171337Z 27004KT M04/M06 A3015 RMK A01 T10411058  RH  088%=      5-min Rain = 0
KMD1 171338Z 27004KT M04/M06 A3015 RMK A01 T10391058  RH  087%=      5-min Rain = 0
KMD1 171339Z 27004KT M04/M06 A3015 RMK A01 T10391058  RH  086%=      5-min Rain = 0
KMD1 171340Z 27004KT M04/M06 A3015 RMK A01 T10381058  RH  086%=      5-min Rain = 0
KMD1 171341Z 27004KT M04/M06 A3015 RMK A01 T10381058  RH  086%=      5-min Rain = 0
KMD1 171342Z 27004KT M04/M06 A3015 RMK A01 T10381058  RH  086%=      5-min Rain = 0
KMD1 171343Z 27003KT M04/M06 A3015 RMK A01 T10381059  RH  085%=      5-min Rain = 0
KMD1 171344Z 26004KT M04/M06 A3015 RMK A01 T10381059  RH  085%=      5-min Rain = 0
KMD1 171345Z 27003KT M04/M06 A3015 RMK A01 T10381060  RH  085%=      5-min Rain = 0
KMD1 171346Z 27004KT M04/M06 A3015 RMK A01 T10381060  RH  085%=      5-min Rain = 0
KMD1 171347Z 27004KT M04/M06 A3015 RMK A01 T10391061  RH  085%=      5-min Rain = 0
KMD1 171348Z 28004KT M04/M06 A3016 RMK A01 T10391061  RH  085%=      5-min Rain = 0
KMD1 171349Z 28004KT M04/M06 A3016 RMK A01 T10401061  RH  085%=      5-min Rain = 0
KMD1 171350Z 28004KT M04/M06 A3016 RMK A01 T10401061  RH  085%=      5-min Rain = 0
KMD1 171351Z 28004KT M04/M06 A3016 RMK A01 T10401062  RH  085%=      5-min Rain = 0
KMD1 171352Z 28004KT M04/M06 A3016 RMK A01 T10411062  RH  085%=      5-min Rain = 0
KMD1 171353Z 28005KT M04/M06 A3016 RMK A01 T10411061  RH  086%=      5-min Rain = 0
KMD1 171354Z 28005KT M04/M06 A3016 RMK A01 T10411061  RH  086%=      5-min Rain = 0
KMD1 171355Z 28005KT M04/M06 A3016 RMK A01 T10411060  RH  087%=      5-min Rain = 0
KMD1 171356Z 28005KT M04/M06 A3016 RMK A01 T10401058  RH  087%=      5-min Rain = 0
KMD1 171357Z 27004KT M04/M06 A3016 RMK A01 T10391058  RH  087%=      5-min Rain = 0
KMD1 171358Z 27004KT M04/M06 A3016 RMK A01 T10381057  RH  087%=      5-min Rain = 0
KMD1 171359Z 27004KT M04/M06 A3016 RMK A01 T10381057  RH  086%=      5-min Rain = 0
KMD1 171400Z 28005KT M04/M06 A3016 RMK A01 T10371057  RH  086%=      5-min Rain = 0
KMD1 171401Z 28005KT M04/M06 A3016 RMK A01 T10361057  RH  085%=      5-min Rain = 0
KMD1 171402Z 28004KT M04/M06 A3017 RMK A01 T10361057  RH  085%=      5-min Rain = 0
KMD1 171403Z 28005KT M04/M06 A3017 RMK A01 T10351057  RH  085%=      5-min Rain = 0
KMD1 171404Z 28005KT M04/M06 A3017 RMK A01 T10351057  RH  085%=      5-min Rain = 0
KMD1 171405Z 28004KT M04/M06 A3017 RMK A01 T10351057  RH  085%=      5-min Rain = 0
KMD1 171406Z 28004KT M04/M06 A3017 RMK A01 T10351057  RH  085%=      5-min Rain = 0
KMD1 171407Z 28004KT M03/M06 A3017 RMK A01 T10341056  RH  085%=      5-min Rain = 0
KMD1 171408Z 28004KT M03/M06 A3017 RMK A01 T10341057  RH  084%=      5-min Rain = 0
KMD1 171409Z 28004KT M03/M06 A3017 RMK A01 T10341057  RH  084%=      5-min Rain = 0
KMD1 171410Z 28004KT M03/M06 A3017 RMK A01 T10341057  RH  084%=      5-min Rain = 0
KMD1 171411Z 27004KT M03/M06 A3017 RMK A01 T10331057  RH  084%=      5-min Rain = 0
KMD1 171412Z 27004KT M03/M06 A3017 RMK A01 T10331057  RH  083%=      5-min Rain = 0
KMD1 171413Z 27004KT M03/M06 A3017 RMK A01 T10321057  RH  083%=      5-min Rain = 0
KMD1 171414Z 27004KT M03/M06 A3017 RMK A01 T10321056  RH  083%=      5-min Rain = 0
KMD1 171415Z 27003KT M03/M06 A3017 RMK A01 T10311055  RH  084%=      5-min Rain = 0
KMD1 171416Z 27003KT M03/M06 A3017 RMK A01 T10311056  RH  083%=      5-min Rain = 0
KMD1 171417Z 27003KT M03/M06 A3017 RMK A01 T10311057  RH  082%=      5-min Rain = 0
KMD1 171418Z 26003KT M03/M06 A3017 RMK A01 T10311057  RH  082%=      5-min Rain = 0
KMD1 171419Z 26002KT M03/M06 A3017 RMK A01 T10301057  RH  082%=      5-min Rain = 0
KMD1 171420Z 26002KT M03/M06 A3017 RMK A01 T10301057  RH  082%=      5-min Rain = 0
KMD1 171421Z 26003KT M03/M06 A3017 RMK A01 T10291057  RH  082%=      5-min Rain = 0
KMD1 171422Z 26003KT M03/M06 A3017 RMK A01 T10291057  RH  081%=      5-min Rain = 0
KMD1 171423Z 26003KT M03/M06 A3017 RMK A01 T10291056  RH  081%=      5-min Rain = 0
KMD1 171424Z 26002KT M03/M06 A3017 RMK A01 T10291056  RH  081%=      5-min Rain = 0
KMD1 171425Z 25003KT M03/M06 A3017 RMK A01 T10281055  RH  081%=      5-min Rain = 0
KMD1 171426Z 26003KT M03/M06 A3017 RMK A01 T10271056  RH  081%=      5-min Rain = 0
KMD1 171427Z 25003KT M03/M05 A3017 RMK A01 T10271054  RH  081%=      5-min Rain = 0
KMD1 171428Z 26003KT M03/M05 A3017 RMK A01 T10261054  RH  081%=      5-min Rain = 0
KMD1 171429Z 25003KT M03/M06 A3017 RMK A01 T10261055  RH  080%=      5-min Rain = 0
KMD1 171430Z 25004KT M03/M05 A3017 RMK A01 T10251054  RH  081%=      5-min Rain = 0
KMD1 171431Z 25004KT M03/M05 A3017 RMK A01 T10251054  RH  081%=      5-min Rain = 0
KMD1 171432Z 25005KT M03/M05 A3017 RMK A01 T10251053  RH  081%=      5-min Rain = 0
KMD1 171433Z 25004KT M02/M05 A3017 RMK A01 T10241053  RH  081%=      5-min Rain = 0
KMD1 171434Z 25005KT M02/M05 A3017 RMK A01 T10221050  RH  081%=      5-min Rain = 0
KMD1 171435Z 25005KT M02/M05 A3017 RMK A01 T10221051  RH  081%=      5-min Rain = 0
KMD1 171436Z 25005KT M02/M05 A3017 RMK A01 T10221051  RH  080%=      5-min Rain = 0
KMD1 171437Z 25005KT M02/M05 A3017 RMK A01 T10211051  RH  080%=      5-min Rain = 0
KMD1 171438Z 25005KT M02/M05 A3017 RMK A01 T10211051  RH  080%=      5-min Rain = 0
KMD1 171439Z 25004KT M02/M05 A3017 RMK A01 T10211052  RH  080%=      5-min Rain = 0
KMD1 171440Z 24004KT M02/M05 A3017 RMK A01 T10201048  RH  081%=      5-min Rain = 0
KMD1 171441Z 24004KT M02/M05 A3017 RMK A01 T10191047  RH  081%=      5-min Rain = 0
KMD1 171442Z 25004KT M02/M05 A3017 RMK A01 T10181047  RH  081%=      5-min Rain = 0
KMD1 171443Z 25004KT M02/M05 A3017 RMK A01 T10171046  RH  081%=      5-min Rain = 0
KMD1 171444Z 25004KT M02/M05 A3017 RMK A01 T10171047  RH  080%=      5-min Rain = 0
KMD1 171445Z 25004KT M02/M05 A3017 RMK A01 T10171047  RH  080%=      5-min Rain = 0
KMD1 171446Z 25004KT M02/M05 A3017 RMK A01 T10161046  RH  080%=      5-min Rain = 0
KMD1 171447Z 25004KT M02/M05 A3017 RMK A01 T10151046  RH  079%=      5-min Rain = 0
KMD1 171448Z 25004KT M01/M05 A3017 RMK A01 T10141046  RH  079%=      5-min Rain = 0
KMD1 171449Z 26004KT M01/M04 A3017 RMK A01 T10131043  RH  080%=      5-min Rain = 0
KMD1 171450Z 25004KT M01/M04 A3017 RMK A01 T10121043  RH  079%=      5-min Rain = 0
KMD1 171451Z 25004KT M01/M04 A3017 RMK A01 T10101043  RH  079%=      5-min Rain = 0
KMD1 171452Z 25004KT M01/M04 A3017 RMK A01 T10101044  RH  078%=      5-min Rain = 0
KMD1 171453Z 26004KT M01/M04 A3017 RMK A01 T10091043  RH  077%=      5-min Rain = 0
KMD1 171454Z 26004KT M01/M04 A3017 RMK A01 T10071044  RH  076%=      5-min Rain = 0
KMD1 171455Z 26004KT M01/M05 A3017 RMK A01 T10071045  RH  075%=      5-min Rain = 0
KMD1 171456Z 26005KT M01/M05 A3017 RMK A01 T10061046  RH  074%=      5-min Rain = 0
KMD1 171457Z 27003KT M01/M05 A3017 RMK A01 T10051046  RH  074%=      5-min Rain = 0
KMD1 171458Z 26003KT M00/M04 A3017 RMK A01 T10041044  RH  074%=      5-min Rain = 0
KMD1 171459Z 26003KT M00/M04 A3018 RMK A01 T10031044  RH  074%=      5-min Rain = 0
KMD1 171500Z 26003KT M00/M04 A3018 RMK A01 T10021041  RH  075%=      5-min Rain = 0
KMD1 171501Z 26004KT M00/M04 A3018 RMK A01 T10011041  RH  074%=      5-min Rain = 0
KMD1 171502Z 26003KT 00/04 A3018 RMK A01 T00-00-41  RH  074%=      5-min Rain = 0
KMD1 171503Z 26004KT 00/04 A3018 RMK A01 T00-00-43  RH  073%=      5-min Rain = 0
KMD1 171504Z 26005KT 00/04 A3018 RMK A01 T00000-43  RH  073%=      5-min Rain = 0
KMD1 171505Z 26004KT 00/04 A3018 RMK A01 T00000-44  RH  072%=      5-min Rain = 0
KMD1 171506Z 26004KT 00/04 A3018 RMK A01 T00000-44  RH  072%=      5-min Rain = 0
KMD1 171507Z 26003KT 00/M04 A3018 RMK A01 T00011042  RH  072%=      5-min Rain = 0
KMD1 171508Z 26003KT 00/M04 A3018 RMK A01 T00031040  RH  073%=      5-min Rain = 0
KMD1 171509Z 25005KT 00/M04 A3017 RMK A01 T00041040  RH  072%=      5-min Rain = 0
KMD1 171510Z 25004KT 01/M04 A3017 RMK A01 T00051041  RH  071%=      5-min Rain = 0
KMD1 171511Z 25003KT 01/M04 A3017 RMK A01 T00071039  RH  072%=      5-min Rain = 0
KMD1 171512Z 25004KT 01/M04 A3017 RMK A01 T00081038  RH  071%=      5-min Rain = 0
KMD1 171513Z 25003KT 01/M04 A3017 RMK A01 T00081040  RH  070%=      5-min Rain = 0
KMD1 171514Z 25004KT 01/M04 A3017 RMK A01 T00091039  RH  070%=      5-min Rain = 0
KMD1 171515Z 25004KT 01/M04 A3017 RMK A01 T00111037  RH  070%=      5-min Rain = 0
KMD1 171516Z 24004KT 01/M04 A3017 RMK A01 T00121038  RH  069%=      5-min Rain = 0
KMD1 171517Z 26003KT 01/M04 A3017 RMK A01 T00121039  RH  069%=      5-min Rain = 0
KMD1 171518Z 25003KT 02/M04 A3017 RMK A01 T00151036  RH  069%=      5-min Rain = 0
KMD1 171519Z 26003KT 02/M03 A3017 RMK A01 T00161034  RH  069%=      5-min Rain = 0
KMD1 171520Z 26003KT 02/M03 A3017 RMK A01 T00191033  RH  069%=      5-min Rain = 0
KMD1 171521Z 26003KT 02/M04 A3017 RMK A01 T00191036  RH  067%=      5-min Rain = 0
KMD1 171522Z 26003KT 02/M03 A3017 RMK A01 T00201034  RH  067%=      5-min Rain = 0
KMD1 171523Z 26005KT 02/M03 A3017 RMK A01 T00221033  RH  067%=      5-min Rain = 0
KMD1 171524Z 26004KT 02/M04 A3017 RMK A01 T00221037  RH  065%=      5-min Rain = 0
KMD1 171525Z 26004KT 02/M04 A3017 RMK A01 T00221036  RH  065%=      5-min Rain = 0
KMD1 171526Z 26004KT 02/M04 A3017 RMK A01 T00241035  RH  065%=      5-min Rain = 0
KMD1 171527Z 26004KT 03/M04 A3017 RMK A01 T00261035  RH  064%=      5-min Rain = 0
KMD1 171528Z 26005KT 03/M03 A3017 RMK A01 T00281034  RH  064%=      5-min Rain = 0
KMD1 171529Z 26003KT 03/M04 A3017 RMK A01 T00301036  RH  062%=      5-min Rain = 0
KMD1 171530Z 26003KT 03/M03 A3017 RMK A01 T00321034  RH  062%=      5-min Rain = 0
KMD1 171531Z 26003KT 03/M03 A3017 RMK A01 T00341034  RH  061%=      5-min Rain = 0
KMD1 171532Z 26004KT 04/M03 A3017 RMK A01 T00361034  RH  060%=      5-min Rain = 0
KMD1 171533Z 25004KT 04/M04 A3017 RMK A01 T00371035  RH  059%=      5-min Rain = 0
KMD1 171534Z 25005KT 04/M04 A3017 RMK A01 T00381039  RH  057%=      5-min Rain = 0
KMD1 171535Z 26005KT 04/M04 A3018 RMK A01 T00381038  RH  057%=      5-min Rain = 0
KMD1 171536Z 26004KT 04/M04 A3018 RMK A01 T00411037  RH  057%=      5-min Rain = 0
KMD1 171537Z 26004KT 04/M04 A3018 RMK A01 T00421035  RH  057%=      5-min Rain = 0
KMD1 171538Z 26005KT 04/M04 A3018 RMK A01 T00441038  RH  055%=      5-min Rain = 0
KMD1 171539Z 26005KT 05/M04 A3018 RMK A01 T00451037  RH  055%=      5-min Rain = 0
KMD1 171540Z 26006KT 05/M04 A3018 RMK A01 T00451040  RH  054%=      5-min Rain = 0
KMD1 171541Z 26005KT 05/M04 A3018 RMK A01 T00461040  RH  054%=      5-min Rain = 0
KMD1 171542Z 26005KT 05/M04 A3018 RMK A01 T00481035  RH  055%=      5-min Rain = 0
KMD1 171543Z 26006KT 05/M04 A3018 RMK A01 T00501036  RH  054%=      5-min Rain = 0
KMD1 171544Z 26004KT 05/M04 A3018 RMK A01 T00511036  RH  053%=      5-min Rain = 0
KMD1 171545Z 26005KT 05/M03 A3018 RMK A01 T00531033  RH  054%=      5-min Rain = 0
KMD1 171546Z 26005KT 05/M04 A3018 RMK A01 T00541035  RH  053%=      5-min Rain = 0
KMD1 171547Z 26004KT 05/M04 A3018 RMK A01 T00541038  RH  051%=      5-min Rain = 0
KMD1 171548Z 26005KT 06/M04 A3018 RMK A01 T00551037  RH  052%=      5-min Rain = 0
KMD1 171549Z 26006KT 06/M04 A3018 RMK A01 T00551039  RH  051%=      5-min Rain = 0
KMD1 171550Z 26005KT 06/M04 A3018 RMK A01 T00551038  RH  051%=      5-min Rain = 0
KMD1 171551Z 26005KT 06/M04 A3018 RMK A01 T00561035  RH  052%=      5-min Rain = 0
KMD1 171552Z 25004KT 06/M04 A3018 RMK A01 T00581037  RH  051%=      5-min Rain = 0
KMD1 171553Z 26004KT 06/M03 A3018 RMK A01 T00601032  RH  052%=      5-min Rain = 0
KMD1 171554Z 26004KT 06/M03 A3018 RMK A01 T00621033  RH  051%=      5-min Rain = 0
KMD1 171555Z 26003KT 06/M04 A3018 RMK A01 T00621035  RH  050%=      5-min Rain = 0
KMD1 171556Z 26004KT 06/M03 A3018 RMK A01 T00641031  RH  051%=      5-min Rain = 0
KMD1 171557Z 26004KT 07/M03 A3018 RMK A01 T00651033  RH  049%=      5-min Rain = 0
KMD1 171558Z 25004KT 07/M03 A3018 RMK A01 T00661032  RH  050%=      5-min Rain = 0
KMD1 171559Z 25003KT 07/M03 A3018 RMK A01 T00671033  RH  049%=      5-min Rain = 0
KMD1 171600Z 25003KT 07/M03 A3018 RMK A01 T00671030  RH  050%=      5-min Rain = 0
KMD1 171601Z 26003KT 07/M03 A3018 RMK A01 T00691029  RH  049%=      5-min Rain = 0
KMD1 171602Z 26003KT 07/M03 A3018 RMK A01 T00691032  RH  048%=      5-min Rain = 0
KMD1 171603Z 26004KT 07/M03 A3018 RMK A01 T00701031  RH  049%=      5-min Rain = 0
KMD1 171604Z 27004KT 07/M03 A3018 RMK A01 T00711032  RH  048%=      5-min Rain = 0
KMD1 171605Z 27004KT 07/M03 A3018 RMK A01 T00711033  RH  048%=      5-min Rain = 0
KMD1 171606Z 26004KT 07/M03 A3018 RMK A01 T00721028  RH  049%=      5-min Rain = 0
KMD1 171607Z 28004KT 07/M03 A3018 RMK A01 T00741029  RH  048%=      5-min Rain = 0
KMD1 171608Z 27003KT 08/M03 A3018 RMK A01 T00751028  RH  048%=      5-min Rain = 0
KMD1 171609Z 25004KT 08/M03 A3018 RMK A01 T00771025  RH  049%=      5-min Rain = 0
KMD1 171610Z 25005KT 08/M03 A3018 RMK A01 T00781026  RH  048%=      5-min Rain = 0
KMD1 171611Z 25005KT 08/M03 A3018 RMK A01 T00781031  RH  046%=      5-min Rain = 0
KMD1 171612Z 26004KT 08/M03 A3018 RMK A01 T00781032  RH  046%=      5-min Rain = 0
KMD1 171613Z 26004KT 08/M03 A3018 RMK A01 T00801026  RH  047%=      5-min Rain = 0
KMD1 171614Z 26004KT 08/M03 A3018 RMK A01 T00841027  RH  046%=      5-min Rain = 0
KMD1 171615Z 27004KT 08/M03 A3018 RMK A01 T00841030  RH  045%=      5-min Rain = 0
KMD1 171616Z 26005KT 09/M03 A3018 RMK A01 T00851029  RH  044%=      5-min Rain = 0
KMD1 171617Z 26004KT 09/M03 A3018 RMK A01 T00851033  RH  043%=      5-min Rain = 0
KMD1 171618Z 25003KT 08/M03 A3018 RMK A01 T00841027  RH  045%=      5-min Rain = 0
KMD1 171619Z 27003KT 09/M03 A3018 RMK A01 T00861025  RH  046%=      5-min Rain = 0
KMD1 171620Z 27003KT 09/M03 A3018 RMK A01 T00871029  RH  044%=      5-min Rain = 0
KMD1 171621Z 27003KT 09/M03 A3018 RMK A01 T00871029  RH  044%=      5-min Rain = 0
KMD1 171622Z 27003KT 09/M03 A3018 RMK A01 T00881028  RH  044%=      5-min Rain = 0
KMD1 171623Z 28003KT 09/M03 A3018 RMK A01 T00881028  RH  044%=      5-min Rain = 0
KMD1 171624Z 28003KT 09/M03 A3018 RMK A01 T00891029  RH  043%=      5-min Rain = 0
KMD1 171625Z 28003KT 09/M03 A3018 RMK A01 T00901029  RH  043%=      5-min Rain = 0
KMD1 171626Z 27003KT 09/M03 A3018 RMK A01 T00921027  RH  043%=      5-min Rain = 0
KMD1 171627Z 28002KT 09/M03 A3018 RMK A01 T00921029  RH  042%=      5-min Rain = 0
KMD1 171628Z 29002KT 09/M02 A3018 RMK A01 T00941023  RH  044%=      5-min Rain = 0
KMD1 171629Z 30003KT 10/M02 A3018 RMK A01 T00971022  RH  043%=      5-min Rain = 0
KMD1 171630Z 30003KT 10/M03 A3018 RMK A01 T00981025  RH  042%=      5-min Rain = 0
KMD1 171631Z 29003KT 10/M03 A3018 RMK A01 T00991028  RH  041%=      5-min Rain = 0
KMD1 171632Z 29003KT 10/M03 A3018 RMK A01 T00991027  RH  041%=      5-min Rain = 0
KMD1 171633Z 29004KT 10/M03 A3018 RMK A01 T01001026  RH  041%=      5-min Rain = 0
KMD1 171634Z 29004KT 10/M02 A3018 RMK A01 T01021024  RH  041%=      5-min Rain = 0
KMD1 171635Z 29003KT 10/M02 A3018 RMK A01 T01041023  RH  041%=      5-min Rain = 0
KMD1 171636Z 30004KT 11/M02 A3018 RMK A01 T01061023  RH  041%=      5-min Rain = 0
KMD1 171637Z 30003KT 11/M02 A3018 RMK A01 T01081022  RH  040%=      5-min Rain = 0
KMD1 171638Z 31003KT 11/M02 A3018 RMK A01 T01101022  RH  040%=      5-min Rain = 0
KMD1 171639Z 31004KT 11/M02 A3018 RMK A01 T01111024  RH  039%=      5-min Rain = 0
KMD1 171640Z 31005KT 11/M02 A3018 RMK A01 T01131022  RH  039%=      5-min Rain = 0
KMD1 171641Z 31004KT 12/M02 A3018 RMK A01 T01161023  RH  038%=      5-min Rain = 0
KMD1 171642Z 31004KT 12/M02 A3018 RMK A01 T01181024  RH  037%=      5-min Rain = 0
KMD1 171643Z 31004KT 12/M03 A3018 RMK A01 T01201025  RH  036%=      5-min Rain = 0
KMD1 171644Z 31007KT 12/M03 A3018 RMK A01 T01221027  RH  035%=      5-min Rain = 0
KMD1 171645Z 30007KT 12/M03 A3018 RMK A01 T01221027  RH  035%=      5-min Rain = 0
KMD1 171646Z 30006KT 12/M03 A3018 RMK A01 T01221030  RH  034%=      5-min Rain = 0
KMD1 171647Z 32005KT 12/M03 A3018 RMK A01 T01231029  RH  035%=      5-min Rain = 0
KMD1 171648Z 31006KT 13/M03 A3018 RMK A01 T01251032  RH  033%=      5-min Rain = 0
KMD1 171649Z 29005KT 13/M03 A3018 RMK A01 T01261033  RH  033%=      5-min Rain = 0
KMD1 171650Z 31006KT 13/M04 A3018 RMK A01 T01271035  RH  032%=      5-min Rain = 0
KMD1 171651Z 30005KT 13/M04 A3018 RMK A01 T01271037  RH  032%=      5-min Rain = 0
KMD1 171652Z 30006KT 13/M04 A3018 RMK A01 T01281035  RH  032%=      5-min Rain = 0
KMD1 171653Z 30005KT 13/M04 A3018 RMK A01 T01281043  RH  030%=      5-min Rain = 0
KMD1 171654Z 30004KT 13/M04 A3018 RMK A01 T01271042  RH  030%=      5-min Rain = 0
KMD1 171655Z 31004KT 13/M04 A3018 RMK A01 T01281037  RH  031%=      5-min Rain = 0
KMD1 171656Z 30007KT 13/M03 A3018 RMK A01 T01311032  RH  032%=      5-min Rain = 0
KMD1 171657Z 32006KT 13/M04 A3018 RMK A01 T01321042  RH  030%=      5-min Rain = 0
KMD1 171658Z 31005KT 13/M04 A3018 RMK A01 T01311042  RH  030%=      5-min Rain = 0
KMD1 171659Z 32005KT 13/M03 A3018 RMK A01 T01321033  RH  032%=      5-min Rain = 0
KMD1 171700Z 35009KT 13/M03 A3019 RMK A01 T01341031  RH  032%=      5-min Rain = 0
KMD1 171701Z 01009KT 13/M02 A3019 RMK A01 T01321020  RH  035%=      5-min Rain = 0
KMD1 171702Z 00008KT 13/M02 A3019 RMK A01 T01271024  RH  035%=      5-min Rain = 0
KMD1 171703Z 01009KT 12/M03 A3019 RMK A01 T01221026  RH  035%=      5-min Rain = 0
KMD1 171704Z 01009KT 12/M02 A3019 RMK A01 T01211024  RH  036%=      5-min Rain = 0
KMD1 171705Z 01011KT 12/M02 A3019 RMK A01 T01201023  RH  037%=      5-min Rain = 0
KMD1 171706Z 02011KT 12/M03 A3019 RMK A01 T01201025  RH  036%=      5-min Rain = 0
KMD1 171707Z 01010KT 12/M02 A3019 RMK A01 T01191024  RH  037%=      5-min Rain = 0
KMD1 171708Z 00009KT 12/M02 A3018 RMK A01 T01191024  RH  037%=      5-min Rain = 0
KMD1 171709Z 01010KT 12/M02 A3018 RMK A01 T01191024  RH  037%=      5-min Rain = 0
KMD1 171710Z 01009KT 12/M02 A3018 RMK A01 T01191024  RH  037%=      5-min Rain = 0
KMD1 171711Z 01007KT 12/M03 A3018 RMK A01 T01191025  RH  037%=      5-min Rain = 0
KMD1 171712Z 02007KT 12/M03 A3018 RMK A01 T01201025  RH  036%=      5-min Rain = 0
KMD1 171713Z 01008KT 12/M03 A3018 RMK A01 T01201025  RH  036%=      5-min Rain = 0
KMD1 171714Z 00007KT 12/M02 A3018 RMK A01 T01221024  RH  036%=      5-min Rain = 0
KMD1 171715Z 35007KT 12/M02 A3018 RMK A01 T01241022  RH  036%=      5-min Rain = 0
KMD1 171716Z 01007KT 12/M03 A3018 RMK A01 T01241025  RH  035%=      5-min Rain = 0
KMD1 171717Z 02007KT 12/M02 A3018 RMK A01 T01231024  RH  036%=      5-min Rain = 0
KMD1 171718Z 35007KT 12/M03 A3018 RMK A01 T01231026  RH  035%=      5-min Rain = 0
KMD1 171719Z 36007KT 12/M03 A3018 RMK A01 T01241027  RH  035%=      5-min Rain = 0
KMD1 171720Z 00007KT 12/M03 A3018 RMK A01 T01241028  RH  035%=      5-min Rain = 0
KMD1 171721Z 01006KT 12/M03 A3018 RMK A01 T01231029  RH  035%=      5-min Rain = 0
KMD1 171722Z 00006KT 12/M02 A3018 RMK A01 T01241024  RH  036%=      5-min Rain = 0
KMD1 171723Z 35007KT 13/M03 A3017 RMK A01 T01261025  RH  035%=      5-min Rain = 0
KMD1 171724Z 35006KT 13/M03 A3017 RMK A01 T01251029  RH  034%=      5-min Rain = 0
KMD1 171725Z 36005KT 13/M03 A3017 RMK A01 T01251028  RH  034%=      5-min Rain = 0
KMD1 171726Z 01006KT 12/M03 A3017 RMK A01 T01241029  RH  034%=      5-min Rain = 0
KMD1 171727Z 35006KT 13/M02 A3017 RMK A01 T01251024  RH  035%=      5-min Rain = 0
KMD1 171728Z 35006KT 13/M03 A3017 RMK A01 T01271029  RH  034%=      5-min Rain = 0
KMD1 171729Z 34004KT 13/M03 A3017 RMK A01 T01261031  RH  033%=      5-min Rain = 0
KMD1 171730Z 35005KT 13/M03 A3017 RMK A01 T01271028  RH  034%=      5-min Rain = 0
KMD1 171731Z 01005KT 13/M03 A3017 RMK A01 T01281027  RH  034%=      5-min Rain = 0
KMD1 171732Z 03008KT 13/M02 A3017 RMK A01 T01311020  RH  035%=      5-min Rain = 0
KMD1 171733Z 02005KT 13/M03 A3017 RMK A01 T01301028  RH  033%=      5-min Rain = 0
KMD1 171734Z 00006KT 13/M03 A3017 RMK A01 T01281025  RH  035%=      5-min Rain = 0
KMD1 171735Z 00006KT 13/M02 A3017 RMK A01 T01311022  RH  035%=      5-min Rain = 0
KMD1 171736Z 01005KT 13/M02 A3017 RMK A01 T01331022  RH  034%=      5-min Rain = 0
KMD1 171737Z 35007KT 14/M02 A3017 RMK A01 T01351024  RH  033%=      5-min Rain = 0
KMD1 171738Z 36006KT 13/M03 A3017 RMK A01 T01331029  RH  032%=      5-min Rain = 0
KMD1 171739Z 36006KT 13/M03 A3017 RMK A01 T01311030  RH  033%=      5-min Rain = 0
KMD1 171740Z 01005KT 13/M03 A3017 RMK A01 T01291029  RH  033%=      5-min Rain = 0
KMD1 171741Z 01003KT 13/M03 A3017 RMK A01 T01291029  RH  033%=      5-min Rain = 0
KMD1 171742Z 00005KT 13/M03 A3017 RMK A01 T01301028  RH  033%=      5-min Rain = 0
KMD1 171743Z 36005KT 13/M03 A3016 RMK A01 T01321027  RH  033%=      5-min Rain = 0
KMD1 171744Z 01006KT 13/M02 A3016 RMK A01 T01341022  RH  034%=      5-min Rain = 0
KMD1 171745Z 36007KT 14/M03 A3016 RMK A01 T01351026  RH  032%=      5-min Rain = 0
KMD1 171746Z 35005KT 13/M03 A3016 RMK A01 T01321031  RH  032%=      5-min Rain = 0
KMD1 171747Z 35004KT 13/M03 A3016 RMK A01 T01311029  RH  033%=      5-min Rain = 0
KMD1 171748Z 00003KT 13/M03 A3016 RMK A01 T01311029  RH  033%=      5-min Rain = 0
KMD1 171749Z 04003KT 13/M03 A3016 RMK A01 T01321026  RH  033%=      5-min Rain = 0
KMD1 171750Z 01005KT 13/M03 A3016 RMK A01 T01331025  RH  033%=      5-min Rain = 0
KMD1 171751Z 33004KT 13/M03 A3016 RMK A01 T01341028  RH  032%=      5-min Rain = 0
KMD1 171752Z 34004KT 13/M03 A3016 RMK A01 T01341029  RH  032%=      5-min Rain = 0
KMD1 171753Z 35004KT 13/M03 A3016 RMK A01 T01341030  RH  032%=      5-min Rain = 0
KMD1 171754Z 35004KT 13/M03 A3016 RMK A01 T01341025  RH  033%=      5-min Rain = 0
KMD1 171755Z 35006KT 14/M03 A3016 RMK A01 T01371025  RH  032%=      5-min Rain = 0
KMD1 171756Z 34005KT 14/M03 A3016 RMK A01 T01371029  RH  032%=      5-min Rain = 0
KMD1 171757Z 34003KT 14/M03 A3016 RMK A01 T01351034  RH  031%=      5-min Rain = 0
KMD1 171758Z 34003KT 13/M03 A3016 RMK A01 T01341034  RH  031%=      5-min Rain = 0
KMD1 171759Z 32002KT 13/M04 A3015 RMK A01 T01331036  RH  031%=      5-min Rain = 0
KMD1 171800Z 05003KT 13/M03 A3015 RMK A01 T01331029  RH  032%=      5-min Rain = 0
KMD1 171801Z 02003KT 14/M03 A3015 RMK A01 T01361026  RH  033%=      5-min Rain = 0
KMD1 171802Z 35005KT 14/M03 A3015 RMK A01 T01381026  RH  032%=      5-min Rain = 0
KMD1 171803Z 01004KT 14/M03 A3015 RMK A01 T01391030  RH  031%=      5-min Rain = 0
KMD1 171804Z 34005KT 14/M02 A3015 RMK A01 T01391024  RH  032%=      5-min Rain = 0
KMD1 171805Z 34006KT 14/M03 A3015 RMK A01 T01401031  RH  031%=      5-min Rain = 0
KMD1 171806Z 33006KT 14/M03 A3015 RMK A01 T01371034  RH  030%=      5-min Rain = 0
KMD1 171807Z 32003KT 14/M03 A3015 RMK A01 T01361033  RH  031%=      5-min Rain = 0
KMD1 171808Z 34004KT 14/M03 A3015 RMK A01 T01371030  RH  031%=      5-min Rain = 0
KMD1 171809Z 36005KT 14/M03 A3015 RMK A01 T01391032  RH  031%=      5-min Rain = 0
KMD1 171810Z 02001KT 14/M04 A3015 RMK A01 T01381036  RH  030%=      5-min Rain = 0
KMD1 171811Z 35003KT 14/M04 A3015 RMK A01 T01371037  RH  030%=      5-min Rain = 0
KMD1 171812Z 01003KT 14/M04 A3015 RMK A01 T01361035  RH  030%=      5-min Rain = 0
KMD1 171813Z 33002KT 14/M03 A3015 RMK A01 T01381031  RH  031%=      5-min Rain = 0
KMD1 171814Z 00004KT 14/M03 A3015 RMK A01 T01401030  RH  031%=      5-min Rain = 0
KMD1 171815Z 35006KT 14/M03 A3015 RMK A01 T01421027  RH  031%=      5-min Rain = 0
KMD1 171816Z 35005KT 15/M02 A3015 RMK A01 T01451024  RH  031%=      5-min Rain = 0
KMD1 171817Z 34006KT 15/M02 A3015 RMK A01 T01471022  RH  031%=      5-min Rain = 0
KMD1 171818Z 34006KT 15/M03 A3015 RMK A01 T01481029  RH  029%=      5-min Rain = 0
KMD1 171819Z 34006KT 15/M03 A3015 RMK A01 T01461031  RH  029%=      5-min Rain = 0
KMD1 171820Z 34005KT 14/M03 A3015 RMK A01 T01441031  RH  030%=      5-min Rain = 0
KMD1 171821Z 32002KT 14/M04 A3015 RMK A01 T01431035  RH  029%=      5-min Rain = 0
KMD1 171822Z 35002KT 14/M04 A3015 RMK A01 T01421036  RH  029%=      5-min Rain = 0
KMD1 171823Z 36002KT 14/M03 A3015 RMK A01 T01431032  RH  030%=      5-min Rain = 0
KMD1 171824Z 34006KT 14/M03 A3015 RMK A01 T01431032  RH  030%=      5-min Rain = 0
KMD1 171825Z 34007KT 14/M03 A3014 RMK A01 T01431033  RH  029%=      5-min Rain = 0
KMD1 171826Z 35006KT 14/M03 A3014 RMK A01 T01421033  RH  030%=      5-min Rain = 0
KMD1 171827Z 35006KT 14/M03 A3014 RMK A01 T01421033  RH  030%=      5-min Rain = 0
KMD1 171828Z 33006KT 14/M03 A3014 RMK A01 T01421033  RH  030%=      5-min Rain = 0
KMD1 171829Z 30005KT 14/M04 A3014 RMK A01 T01421035  RH  029%=      5-min Rain = 0
KMD1 171830Z 29004KT 14/M04 A3014 RMK A01 T01421036  RH  029%=      5-min Rain = 0
KMD1 171831Z 30003KT 14/M04 A3014 RMK A01 T01421035  RH  029%=      5-min Rain = 0
KMD1 171832Z 33003KT 14/M03 A3014 RMK A01 T01431033  RH  029%=      5-min Rain = 0
KMD1 171833Z 35003KT 14/M03 A3014 RMK A01 T01431030  RH  030%=      5-min Rain = 0
KMD1 171834Z 36005KT 15/M03 A3014 RMK A01 T01461027  RH  030%=      5-min Rain = 0
KMD1 171835Z 01005KT 14/M03 A3014 RMK A01 T01441033  RH  029%=      5-min Rain = 0
KMD1 171836Z 03003KT 14/M04 A3014 RMK A01 T01411036  RH  029%=      5-min Rain = 0
KMD1 171837Z 04003KT 14/M03 A3013 RMK A01 T01401034  RH  030%=      5-min Rain = 0
KMD1 171838Z 02003KT 14/M04 A3013 RMK A01 T01411035  RH  029%=      5-min Rain = 0
KMD1 171839Z 33005KT 14/M03 A3013 RMK A01 T01411032  RH  030%=      5-min Rain = 0
KMD1 171840Z 32006KT 14/M03 A3013 RMK A01 T01431034  RH  029%=      5-min Rain = 0
KMD1 171841Z 31004KT 14/M03 A3013 RMK A01 T01431034  RH  029%=      5-min Rain = 0
KMD1 171842Z 29002KT 15/M03 A3013 RMK A01 T01451034  RH  029%=      5-min Rain = 0
KMD1 171843Z 28002KT 15/M04 A3013 RMK A01 T01451036  RH  028%=      5-min Rain = 0
KMD1 171844Z 32004KT 15/M04 A3013 RMK A01 T01461035  RH  028%=      5-min Rain = 0
KMD1 171845Z 33006KT 15/M03 A3013 RMK A01 T01471031  RH  029%=      5-min Rain = 0
KMD1 171846Z 35004KT 15/M03 A3013 RMK A01 T01471032  RH  029%=      5-min Rain = 0
KMD1 171847Z 02005KT 15/M03 A3014 RMK A01 T01471031  RH  029%=      5-min Rain = 0
KMD1 171848Z 02005KT 15/M03 A3014 RMK A01 T01471033  RH  029%=      5-min Rain = 0
KMD1 171849Z 01004KT 15/M04 A3014 RMK A01 T01451036  RH  028%=      5-min Rain = 0
KMD1 171850Z 36004KT 15/M03 A3014 RMK A01 T01451033  RH  029%=      5-min Rain = 0
KMD1 171851Z 33003KT 15/M03 A3013 RMK A01 T01461034  RH  029%=      5-min Rain = 0
KMD1 171852Z 35005KT 15/M03 A3013 RMK A01 T01471032  RH  029%=      5-min Rain = 0
KMD1 171853Z 36004KT 15/M03 A3013 RMK A01 T01501027  RH  030%=      5-min Rain = 0
KMD1 171854Z 01003KT 15/M03 A3013 RMK A01 T01511029  RH  029%=      5-min Rain = 0
KMD1 171855Z 34002KT 15/M03 A3013 RMK A01 T01521027  RH  029%=      5-min Rain = 0
KMD1 171856Z 06001KT 15/M03 A3013 RMK A01 T01541028  RH  028%=      5-min Rain = 0
KMD1 171857Z 36002KT 16/M03 A3013 RMK A01 T01561031  RH  028%=      5-min Rain = 0
KMD1 171858Z 01003KT 16/M03 A3013 RMK A01 T01561031  RH  028%=      5-min Rain = 0
KMD1 171859Z 01005KT 15/M03 A3013 RMK A01 T01541029  RH  028%=      5-min Rain = 0
KMD1 171900Z 35005KT 15/M03 A3013 RMK A01 T01521032  RH  028%=      5-min Rain = 0
KMD1 171901Z 32005KT 15/M03 A3013 RMK A01 T01511028  RH  029%=      5-min Rain = 0
KMD1 171902Z 31004KT 15/M03 A3013 RMK A01 T01531031  RH  028%=      5-min Rain = 0
KMD1 171903Z 33004KT 15/M03 A3013 RMK A01 T01531031  RH  028%=      5-min Rain = 0
KMD1 171904Z 33004KT 15/M04 A3013 RMK A01 T01521036  RH  027%=      5-min Rain = 0
KMD1 171905Z 31003KT 15/M04 A3013 RMK A01 T01491036  RH  028%=      5-min Rain = 0
KMD1 171906Z 32003KT 15/M04 A3013 RMK A01 T01481036  RH  028%=      5-min Rain = 0
KMD1 171907Z 30002KT 15/M03 A3013 RMK A01 T01481033  RH  028%=      5-min Rain = 0
KMD1 171908Z 32001KT 15/M04 A3012 RMK A01 T01491035  RH  028%=      5-min Rain = 0
KMD1 171909Z 01002KT 15/M03 A3012 RMK A01 T01501033  RH  028%=      5-min Rain = 0
KMD1 171910Z 36004KT 15/M03 A3012 RMK A01 T01511033  RH  028%=      5-min Rain = 0
KMD1 171911Z 35006KT 15/M04 A3012 RMK A01 T01511036  RH  027%=      5-min Rain = 0
KMD1 171912Z 35005KT 15/M03 A3012 RMK A01 T01501032  RH  028%=      5-min Rain = 0
KMD1 171913Z 36007KT 15/M04 A3012 RMK A01 T01511035  RH  028%=      5-min Rain = 0
KMD1 171914Z 35004KT 15/M04 A3012 RMK A01 T01501035  RH  028%=      5-min Rain = 0
KMD1 171915Z 33005KT 15/M03 A3012 RMK A01 T01501032  RH  028%=      5-min Rain = 0
KMD1 171916Z 35006KT 15/M03 A3012 RMK A01 T01511031  RH  028%=      5-min Rain = 0
KMD1 171917Z 00005KT 15/M03 A3012 RMK A01 T01521033  RH  028%=      5-min Rain = 0
KMD1 171918Z 00005KT 15/M04 A3012 RMK A01 T01511036  RH  027%=      5-min Rain = 0
KMD1 171919Z 35004KT 15/M04 A3012 RMK A01 T01501036  RH  027%=      5-min Rain = 0
KMD1 171920Z 00003KT 15/M04 A3012 RMK A01 T01481035  RH  028%=      5-min Rain = 0
KMD1 171921Z 36004KT 15/M04 A3012 RMK A01 T01491036  RH  028%=      5-min Rain = 0
KMD1 171922Z 01004KT 15/M04 A3012 RMK A01 T01491036  RH  028%=      5-min Rain = 0
KMD1 171923Z 04002KT 15/M04 A3012 RMK A01 T01491039  RH  027%=      5-min Rain = 0
KMD1 171924Z 02001KT 15/M04 A3012 RMK A01 T01481040  RH  027%=      5-min Rain = 0
KMD1 171925Z 34005KT 15/M03 A3012 RMK A01 T01491034  RH  028%=      5-min Rain = 0
KMD1 171926Z 32005KT 15/M03 A3011 RMK A01 T01521034  RH  028%=      5-min Rain = 0
KMD1 171927Z 33003KT 15/M03 A3011 RMK A01 T01521034  RH  027%=      5-min Rain = 0
KMD1 171928Z 01002KT 15/M03 A3011 RMK A01 T01541031  RH  028%=      5-min Rain = 0
KMD1 171929Z 34004KT 16/M03 A3011 RMK A01 T01571028  RH  028%=      5-min Rain = 0
KMD1 171930Z 32005KT 16/M03 A3011 RMK A01 T01571033  RH  027%=      5-min Rain = 0
KMD1 171931Z 31004KT 16/M04 A3011 RMK A01 T01561038  RH  026%=      5-min Rain = 0
KMD1 171932Z 29002KT 15/M04 A3011 RMK A01 T01541036  RH  027%=      5-min Rain = 0
KMD1 171933Z 25002KT 15/M04 A3011 RMK A01 T01541038  RH  026%=      5-min Rain = 0
KMD1 171934Z 27002KT 16/M04 A3011 RMK A01 T01551038  RH  026%=      5-min Rain = 0
KMD1 171935Z 27001KT 15/M04 A3011 RMK A01 T01541040  RH  026%=      5-min Rain = 0
KMD1 171936Z 15000KT 15/M04 A3011 RMK A01 T01541035  RH  027%=      5-min Rain = 0
KMD1 171937Z 12001KT 16/M03 A3011 RMK A01 T01581031  RH  027%=      5-min Rain = 0
KMD1 171938Z 10001KT 16/M03 A3011 RMK A01 T01601034  RH  026%=      5-min Rain = 0
KMD1 171939Z 03002KT 16/M03 A3011 RMK A01 T01611033  RH  026%=      5-min Rain = 0
KMD1 171940Z 34006KT 16/M03 A3011 RMK A01 T01611034  RH  026%=      5-min Rain = 0
KMD1 171941Z 34004KT 16/M04 A3011 RMK A01 T01581040  RH  025%=      5-min Rain = 0
KMD1 171942Z 34001KT 15/M04 A3011 RMK A01 T01531042  RH  026%=      5-min Rain = 0
KMD1 171943Z 19001KT 15/M04 A301 RMK A01 T01531039  RH  026%=      5-min Rain = 0
KMD1 171944Z 08002KT 16/M04 A301 RMK A01 T01551036  RH  027%=      5-min Rain = 0
KMD1 171945Z 09001KT 16/M04 A301 RMK A01 T01551039  RH  026%=      5-min Rain = 0
KMD1 171946Z 02001KT 15/M04 A301 RMK A01 T01541040  RH  026%=      5-min Rain = 0
KMD1 171947Z 34002KT 16/M04 A301 RMK A01 T01551039  RH  026%=      5-min Rain = 0
KMD1 171948Z 34006KT 16/M04 A301 RMK A01 T01571035  RH  027%=      5-min Rain = 0
KMD1 171949Z 34005KT 16/M04 A301 RMK A01 T01571036  RH  026%=      5-min Rain = 0
KMD1 171950Z 33005KT 16/M03 A301 RMK A01 T01571034  RH  027%=      5-min Rain = 0
KMD1 171951Z 32005KT 16/M03 A301 RMK A01 T01571034  RH  027%=      5-min Rain = 0
KMD1 171952Z 35007KT 16/M03 A301 RMK A01 T01581032  RH  027%=      5-min Rain = 0
KMD1 171953Z 01004KT 16/M04 A301 RMK A01 T01571038  RH  026%=      5-min Rain = 0
KMD1 171954Z 34001KT 16/M04 A301 RMK A01 T01551039  RH  026%=      5-min Rain = 0
KMD1 171955Z 34005KT 16/M04 A301 RMK A01 T01551037  RH  026%=      5-min Rain = 0
KMD1 171956Z 35002KT 16/M04 A301 RMK A01 T01551039  RH  026%=      5-min Rain = 0
KMD1 171957Z 31004KT 16/M04 A301 RMK A01 T01561037  RH  026%=      5-min Rain = 0
KMD1 171958Z 31001KT 16/M04 A301 RMK A01 T01551038  RH  026%=      5-min Rain = 0
KMD1 171959Z 15000KT 16/M04 A301 RMK A01 T01561039  RH  026%=      5-min Rain = 0
KMD1 172000Z 15000KT 16/M04 A301 RMK A01 T01571040  RH  026%=      5-min Rain = 0
KMD1 172001Z 11001KT 16/M04 A301 RMK A01 T01571041  RH  025%=      5-min Rain = 0
KMD1 172002Z 10001KT 16/M04 A301 RMK A01 T01571039  RH  026%=      5-min Rain = 0
KMD1 172003Z 04001KT 16/M04 A301 RMK A01 T01571037  RH  026%=      5-min Rain = 0
KMD1 172004Z 35000KT 16/M04 A301 RMK A01 T01581038  RH  026%=      5-min Rain = 0
KMD1 172005Z 02000KT 16/M04 A301 RMK A01 T01581037  RH  026%=      5-min Rain = 0
KMD1 172006Z 06001KT 16/M04 A301 RMK A01 T01601036  RH  026%=      5-min Rain = 0
KMD1 172007Z 02003KT 16/M04 A301 RMK A01 T01611037  RH  025%=      5-min Rain = 0
KMD1 172008Z 01002KT 16/M04 A301 RMK A01 T01611035  RH  026%=      5-min Rain = 0
KMD1 172009Z 03002KT 16/M04 A301 RMK A01 T01611035  RH  026%=      5-min Rain = 0
KMD1 172010Z 04003KT 16/M03 A301 RMK A01 T01621034  RH  026%=      5-min Rain = 0
KMD1 172011Z 01005KT 16/M03 A301 RMK A01 T01621032  RH  026%=      5-min Rain = 0
KMD1 172012Z 01006KT 16/M03 A3009 RMK A01 T01621031  RH  026%=      5-min Rain = 0
KMD1 172013Z 35005KT 16/M04 A3009 RMK A01 T01601035  RH  026%=      5-min Rain = 0
KMD1 172014Z 36004KT 16/M03 A3009 RMK A01 T01581034  RH  026%=      5-min Rain = 0
KMD1 172015Z 32005KT 16/M03 A3009 RMK A01 T01591030  RH  027%=      5-min Rain = 0
KMD1 172016Z 32005KT 16/M04 A3009 RMK A01 T01591035  RH  026%=      5-min Rain = 0
KMD1 172017Z 32004KT 16/M04 A3009 RMK A01 T01581035  RH  026%=      5-min Rain = 0
KMD1 172018Z 30005KT 16/M03 A3009 RMK A01 T01581032  RH  027%=      5-min Rain = 0
KMD1 172019Z 30004KT 16/M03 A3009 RMK A01 T01591034  RH  026%=      5-min Rain = 0
KMD1 172020Z 30003KT 16/M03 A3009 RMK A01 T01591032  RH  027%=      5-min Rain = 0
KMD1 172021Z 28003KT 16/M03 A3009 RMK A01 T01601034  RH  026%=      5-min Rain = 0
KMD1 172022Z 29004KT 16/M04 A3009 RMK A01 T01591035  RH  026%=      5-min Rain = 0
KMD1 172023Z 32005KT 16/M04 A3009 RMK A01 T01581035  RH  026%=      5-min Rain = 0
KMD1 172024Z 31003KT 16/M03 A3009 RMK A01 T01581034  RH  026%=      5-min Rain = 0
KMD1 172025Z 33001KT 16/M03 A3009 RMK A01 T01591034  RH  026%=      5-min Rain = 0
KMD1 172026Z 30001KT 16/M03 A3009 RMK A01 T01601033  RH  026%=      5-min Rain = 0
KMD1 172027Z 35001KT 16/M03 A3009 RMK A01 T01611034  RH  026%=      5-min Rain = 0
KMD1 172028Z 02005KT 16/M03 A3009 RMK A01 T01631031  RH  026%=      5-min Rain = 0
KMD1 172029Z 01005KT 16/M03 A3009 RMK A01 T01631031  RH  026%=      5-min Rain = 0
KMD1 172030Z 02007KT 16/M04 A3009 RMK A01 T01611035  RH  026%=      5-min Rain = 0
KMD1 172031Z 00006KT 16/M03 A3009 RMK A01 T01601032  RH  027%=      5-min Rain = 0
KMD1 172032Z 36007KT 16/M03 A3009 RMK A01 T01621027  RH  027%=      5-min Rain = 0
KMD1 172033Z 35006KT 16/M03 A3009 RMK A01 T01641031  RH  026%=      5-min Rain = 0
KMD1 172034Z 01005KT 16/M03 A3009 RMK A01 T01631031  RH  026%=      5-min Rain = 0
KMD1 172035Z 02005KT 16/M03 A3009 RMK A01 T01621033  RH  026%=      5-min Rain = 0
KMD1 172036Z 01005KT 16/M04 A3009 RMK A01 T01601035  RH  026%=      5-min Rain = 0
KMD1 172037Z 00002KT 16/M04 A3009 RMK A01 T01581036  RH  026%=      5-min Rain = 0
KMD1 172038Z 36002KT 16/M04 A3009 RMK A01 T01571037  RH  026%=      5-min Rain = 0
KMD1 172039Z 00004KT 16/M03 A3009 RMK A01 T01581030  RH  027%=      5-min Rain = 0
KMD1 172040Z 01005KT 16/M03 A3009 RMK A01 T01601033  RH  026%=      5-min Rain = 0
KMD1 172041Z 00001KT 16/M04 A3009 RMK A01 T01581039  RH  025%=      5-min Rain = 0
KMD1 172042Z 02004KT 16/M04 A3009 RMK A01 T01571036  RH  026%=      5-min Rain = 0
KMD1 172043Z 02003KT 16/M04 A3009 RMK A01 T01571036  RH  026%=      5-min Rain = 0
KMD1 172044Z 04002KT 16/M04 A3009 RMK A01 T01571037  RH  026%=      5-min Rain = 0
KMD1 172045Z 07002KT 16/M04 A3009 RMK A01 T01571035  RH  026%=      5-min Rain = 0
KMD1 172046Z 08000KT 16/M03 A3009 RMK A01 T01591032  RH  027%=      5-min Rain = 0
KMD1 172047Z 10001KT 16/M04 A3009 RMK A01 T01601036  RH  026%=      5-min Rain = 0
KMD1 172048Z 09003KT 16/M04 A3009 RMK A01 T01601036  RH  026%=      5-min Rain = 0
KMD1 172049Z 09002KT 16/M04 A3009 RMK A01 T01581036  RH  026%=      5-min Rain = 0
KMD1 172050Z 09001KT 16/M04 A3009 RMK A01 T01581038  RH  026%=      5-min Rain = 0
KMD1 172051Z 09001KT 16/M04 A3009 RMK A01 T01581038  RH  026%=      5-min Rain = 0
KMD1 172052Z 11001KT 16/M04 A3009 RMK A01 T01581037  RH  026%=      5-min Rain = 0
KMD1 172053Z 17001KT 16/M03 A3009 RMK A01 T01611033  RH  026%=      5-min Rain = 0
KMD1 172054Z 21003KT 16/M03 A3009 RMK A01 T01641032  RH  026%=      5-min Rain = 0
KMD1 172055Z 22003KT 17/M04 A3009 RMK A01 T01651036  RH  025%=      5-min Rain = 0
KMD1 172056Z 21002KT 16/M04 A3009 RMK A01 T01631035  RH  025%=      5-min Rain = 0
KMD1 172057Z 19003KT 16/M04 A3009 RMK A01 T01631035  RH  026%=      5-min Rain = 0
KMD1 172058Z 18002KT 16/M04 A3009 RMK A01 T01631035  RH  025%=      5-min Rain = 0
KMD1 172059Z 19003KT 16/M03 A3009 RMK A01 T01631034  RH  026%=      5-min Rain = 0
KMD1 172100Z 22002KT 16/M03 A3009 RMK A01 T01631032  RH  026%=      5-min Rain = 0
KMD1 172101Z 20001KT 16/M04 A3009 RMK A01 T01641036  RH  025%=      5-min Rain = 0
KMD1 172102Z 16003KT 16/M04 A3009 RMK A01 T01641038  RH  025%=      5-min Rain = 0
KMD1 172103Z 15002KT 16/M04 A3008 RMK A01 T01621038  RH  025%=      5-min Rain = 0
KMD1 172104Z 15001KT 16/M04 A3008 RMK A01 T01611037  RH  025%=      5-min Rain = 0
KMD1 172105Z 35001KT 16/M04 A3008 RMK A01 T01611035  RH  026%=      5-min Rain = 0
KMD1 172106Z 07001KT 16/M03 A3008 RMK A01 T01631031  RH  026%=      5-min Rain = 0
KMD1 172107Z 35004KT 16/M03 A3008 RMK A01 T01631033  RH  026%=      5-min Rain = 0
KMD1 172108Z 35005KT 16/M03 A3008 RMK A01 T01641032  RH  026%=      5-min Rain = 0
KMD1 172109Z 34003KT 16/M03 A3008 RMK A01 T01631034  RH  026%=      5-min Rain = 0
KMD1 172110Z 35004KT 16/M03 A3008 RMK A01 T01641031  RH  026%=      5-min Rain = 0
KMD1 172111Z 01004KT 16/M03 A3008 RMK A01 T01641033  RH  026%=      5-min Rain = 0
KMD1 172112Z 01002KT 16/M04 A3008 RMK A01 T01631035  RH  026%=      5-min Rain = 0
KMD1 172113Z 03002KT 16/M04 A3008 RMK A01 T01621037  RH  025%=      5-min Rain = 0
KMD1 172114Z 02003KT 16/M03 A3008 RMK A01 T01611033  RH  026%=      5-min Rain = 0
KMD1 172115Z 02001KT 16/M03 A3008 RMK A01 T01621034  RH  026%=      5-min Rain = 0
KMD1 172116Z 03002KT 16/M03 A3008 RMK A01 T01631034  RH  026%=      5-min Rain = 0
KMD1 172117Z 04002KT 16/M03 A3008 RMK A01 T01631031  RH  026%=      5-min Rain = 0
KMD1 172118Z 04003KT 16/M03 A3008 RMK A01 T01641031  RH  026%=      5-min Rain = 0
KMD1 172119Z 05002KT 16/M04 A3008 RMK A01 T01641035  RH  025%=      5-min Rain = 0
KMD1 172120Z 04001KT 16/M04 A3008 RMK A01 T01621037  RH  025%=      5-min Rain = 0
KMD1 172121Z 05002KT 16/M04 A3008 RMK A01 T01621035  RH  026%=      5-min Rain = 0
KMD1 172122Z 04002KT 16/M04 A3008 RMK A01 T01621035  RH  026%=      5-min Rain = 0
KMD1 172123Z 03002KT 16/M03 A3008 RMK A01 T01621034  RH  026%=      5-min Rain = 0
KMD1 172124Z 04002KT 16/M03 A3007 RMK A01 T01631034  RH  026%=      5-min Rain = 0
KMD1 172125Z 05000KT 16/M03 A3007 RMK A01 T01631032  RH  026%=      5-min Rain = 0
KMD1 172126Z 29001KT 17/M03 A3007 RMK A01 T01661027  RH  027%=      5-min Rain = 0
KMD1 172127Z 27002KT 17/M03 A3007 RMK A01 T01681031  RH  025%=      5-min Rain = 0
KMD1 172128Z 29002KT 17/M03 A3007 RMK A01 T01691033  RH  025%=      5-min Rain = 0
KMD1 172129Z 33001KT 17/M03 A3007 RMK A01 T01691033  RH  025%=      5-min Rain = 0
KMD1 172130Z 34001KT 17/M03 A3007 RMK A01 T01691031  RH  025%=      5-min Rain = 0
KMD1 172131Z 28000KT 17/M03 A3007 RMK A01 T01691030  RH  025%=      5-min Rain = 0
KMD1 172132Z 22004KT 17/M03 A3007 RMK A01 T01711029  RH  025%=      5-min Rain = 0
KMD1 172133Z 22002KT 17/M03 A3007 RMK A01 T01711032  RH  025%=      5-min Rain = 0
KMD1 172134Z 21002KT 17/M04 A3007 RMK A01 T01691035  RH  024%=      5-min Rain = 0
KMD1 172135Z 20002KT 17/M03 A3007 RMK A01 T01691034  RH  025%=      5-min Rain = 0
KMD1 172136Z 15002KT 17/M03 A3007 RMK A01 T01691034  RH  025%=      5-min Rain = 0
KMD1 172137Z 12001KT 17/M04 A3007 RMK A01 T01681035  RH  025%=      5-min Rain = 0
KMD1 172138Z 19001KT 17/M03 A3007 RMK A01 T01681031  RH  025%=      5-min Rain = 0
KMD1 172139Z 24001KT 17/M03 A3007 RMK A01 T01701030  RH  025%=      5-min Rain = 0
KMD1 172140Z 28002KT 17/M03 A3007 RMK A01 T01701031  RH  025%=      5-min Rain = 0
KMD1 172141Z 27002KT 17/M03 A3007 RMK A01 T01701033  RH  025%=      5-min Rain = 0
KMD1 172142Z 30002KT 17/M03 A3007 RMK A01 T01711028  RH  026%=      5-min Rain = 0
KMD1 172143Z 34002KT 17/M03 A3007 RMK A01 T01721030  RH  025%=      5-min Rain = 0
KMD1 172144Z 34001KT 17/M04 A3007 RMK A01 T01711035  RH  024%=      5-min Rain = 0
KMD1 172145Z 02001KT 17/M03 A3007 RMK A01 T01681033  RH  025%=      5-min Rain = 0
KMD1 172146Z 34002KT 17/M03 A3007 RMK A01 T01671032  RH  025%=      5-min Rain = 0
KMD1 172147Z 00003KT 17/M03 A3007 RMK A01 T01671029  RH  026%=      5-min Rain = 0
KMD1 172148Z 35004KT 17/M03 A3007 RMK A01 T01671030  RH  026%=      5-min Rain = 0
KMD1 172149Z 35004KT 17/M03 A3007 RMK A01 T01661031  RH  026%=      5-min Rain = 0
KMD1 172150Z 35004KT 17/M03 A3007 RMK A01 T01651033  RH  026%=      5-min Rain = 0
KMD1 172151Z 34003KT 16/M03 A3007 RMK A01 T01641033  RH  026%=      5-min Rain = 0
KMD1 172152Z 33002KT 16/M03 A3007 RMK A01 T01641032  RH  026%=      5-min Rain = 0
KMD1 172153Z 31002KT 17/M03 A3007 RMK A01 T01651034  RH  025%=      5-min Rain = 0
KMD1 172154Z 34001KT 17/M03 A3007 RMK A01 T01651033  RH  026%=      5-min Rain = 0
KMD1 172155Z 32003KT 17/M03 A3007 RMK A01 T01661032  RH  026%=      5-min Rain = 0
KMD1 172156Z 31004KT 17/M03 A3007 RMK A01 T01671030  RH  026%=      5-min Rain = 0
KMD1 172157Z 31003KT 17/M03 A3007 RMK A01 T01661033  RH  025%=      5-min Rain = 0
KMD1 172158Z 32001KT 17/M03 A3007 RMK A01 T01661032  RH  026%=      5-min Rain = 0
KMD1 172159Z 33002KT 17/M03 A3007 RMK A01 T01671028  RH  026%=      5-min Rain = 0
KMD1 172200Z 33002KT 17/M03 A3007 RMK A01 T01691028  RH  026%=      5-min Rain = 0
KMD1 172201Z 33000KT 17/M03 A3007 RMK A01 T01701033  RH  025%=      5-min Rain = 0
KMD1 172202Z 01000KT 17/M03 A3007 RMK A01 T01691033  RH  025%=      5-min Rain = 0
KMD1 172203Z 03001KT 17/M03 A3007 RMK A01 T01691034  RH  025%=      5-min Rain = 0
KMD1 172204Z 01001KT 17/M03 A3007 RMK A01 T01681029  RH  026%=      5-min Rain = 0
KMD1 172205Z 01001KT 17/M03 A3007 RMK A01 T01691031  RH  025%=      5-min Rain = 0
KMD1 172206Z 35001KT 17/M03 A3007 RMK A01 T01681034  RH  025%=      5-min Rain = 0
KMD1 172207Z 01001KT 17/M03 A3007 RMK A01 T01681034  RH  025%=      5-min Rain = 0
KMD1 172208Z 04002KT 17/M04 A3007 RMK A01 T01671035  RH  025%=      5-min Rain = 0
KMD1 172209Z 04001KT 17/M03 A3007 RMK A01 T01661034  RH  025%=      5-min Rain = 0
KMD1 172210Z 06001KT 17/M03 A3007 RMK A01 T01671032  RH  026%=      5-min Rain = 0
KMD1 172211Z 06002KT 17/M03 A3007 RMK A01 T01671033  RH  025%=      5-min Rain = 0
KMD1 172212Z 05003KT 17/M03 A3007 RMK A01 T01661032  RH  025%=      5-min Rain = 0
KMD1 172213Z 05002KT 17/M03 A3007 RMK A01 T01661031  RH  026%=      5-min Rain = 0
KMD1 172214Z 07001KT 17/M03 A3007 RMK A01 T01661032  RH  026%=      5-min Rain = 0
KMD1 172215Z 03001KT 17/M03 A3007 RMK A01 T01661034  RH  025%=      5-min Rain = 0
KMD1 172216Z 34004KT 17/M03 A3007 RMK A01 T01671029  RH  026%=      5-min Rain = 0
KMD1 172217Z 34005KT 17/M03 A3007 RMK A01 T01671032  RH  025%=      5-min Rain = 0
KMD1 172218Z 35004KT 17/M03 A3007 RMK A01 T01661031  RH  026%=      5-min Rain = 0
KMD1 172219Z 01005KT 17/M03 A3007 RMK A01 T01661029  RH  026%=      5-min Rain = 0
KMD1 172220Z 36005KT 17/M03 A3007 RMK A01 T01661031  RH  026%=      5-min Rain = 0
KMD1 172221Z 36004KT 17/M03 A3007 RMK A01 T01651033  RH  026%=      5-min Rain = 0
KMD1 172222Z 35005KT 17/M03 A3007 RMK A01 T01651029  RH  026%=      5-min Rain = 0
KMD1 172223Z 36004KT 17/M03 A3008 RMK A01 T01651032  RH  026%=      5-min Rain = 0
KMD1 172224Z 36002KT 17/M03 A3008 RMK A01 T01651031  RH  026%=      5-min Rain = 0
KMD1 172225Z 36001KT 17/M03 A3008 RMK A01 T01651032  RH  026%=      5-min Rain = 0
KMD1 172226Z 02002KT 17/M03 A3008 RMK A01 T01661032  RH  026%=      5-min Rain = 0
KMD1 172227Z 01003KT 17/M03 A3008 RMK A01 T01671028  RH  026%=      5-min Rain = 0
KMD1 172228Z 01003KT 17/M02 A3008 RMK A01 T01681024  RH  027%=      5-min Rain = 0
KMD1 172229Z 00003KT 17/M03 A3008 RMK A01 T01691029  RH  026%=      5-min Rain = 0
KMD1 172230Z 00003KT 17/M03 A3008 RMK A01 T01691032  RH  025%=      5-min Rain = 0
KMD1 172231Z 36004KT 17/M03 A3008 RMK A01 T01681030  RH  026%=      5-min Rain = 0
KMD1 172232Z 01003KT 17/M03 A3008 RMK A01 T01681030  RH  026%=      5-min Rain = 0
KMD1 172233Z 33004KT 17/M03 A3008 RMK A01 T01681030  RH  026%=      5-min Rain = 0
KMD1 172234Z 31004KT 17/M03 A3007 RMK A01 T01681034  RH  025%=      5-min Rain = 0
KMD1 172235Z 31003KT 17/M03 A3007 RMK A01 T01671032  RH  025%=      5-min Rain = 0
KMD1 172236Z 31003KT 17/M03 A3007 RMK A01 T01681034  RH  025%=      5-min Rain = 0
KMD1 172237Z 28001KT 17/M04 A3007 RMK A01 T01671035  RH  025%=      5-min Rain = 0
KMD1 172238Z 34002KT 17/M04 A3007 RMK A01 T01671035  RH  025%=      5-min Rain = 0
KMD1 172239Z 00002KT 17/M03 A3007 RMK A01 T01681034  RH  025%=      5-min Rain = 0
KMD1 172240Z 35001KT 17/M03 A3007 RMK A01 T01681034  RH  025%=      5-min Rain = 0
KMD1 172241Z 35000KT 17/M04 A3007 RMK A01 T01671036  RH  025%=      5-min Rain = 0
KMD1 172242Z 01000KT 17/M04 A3007 RMK A01 T01671035  RH  025%=      5-min Rain = 0
KMD1 172243Z 36002KT 17/M03 A3007 RMK A01 T01671033  RH  025%=      5-min Rain = 0
KMD1 172244Z 34003KT 17/M03 A3007 RMK A01 T01671034  RH  025%=      5-min Rain = 0
KMD1 172245Z 34003KT 17/M03 A3007 RMK A01 T01671034  RH  025%=      5-min Rain = 0
KMD1 172246Z 35003KT 17/M03 A3007 RMK A01 T01661034  RH  025%=      5-min Rain = 0
KMD1 172247Z 01003KT 17/M03 A3007 RMK A01 T01661032  RH  026%=      5-min Rain = 0
KMD1 172248Z 01002KT 17/M03 A3007 RMK A01 T01661033  RH  025%=      5-min Rain = 0
KMD1 172249Z 04001KT 17/M04 A3007 RMK A01 T01661035  RH  025%=      5-min Rain = 0
KMD1 172250Z 05001KT 17/M04 A3007 RMK A01 T01661035  RH  025%=      5-min Rain = 0
KMD1 172251Z 13000KT 17/M04 A3007 RMK A01 T01661037  RH  025%=      5-min Rain = 0
KMD1 172252Z 34001KT 17/M04 A3007 RMK A01 T01671035  RH  025%=      5-min Rain = 0
KMD1 172253Z 01002KT 17/M03 A3007 RMK A01 T01681034  RH  025%=      5-min Rain = 0
KMD1 172254Z 02003KT 17/M03 A3007 RMK A01 T01681030  RH  026%=      5-min Rain = 0
KMD1 172255Z 03002KT 17/M03 A3007 RMK A01 T01681028  RH  026%=      5-min Rain = 0
KMD1 172256Z 00001KT 17/M03 A3007 RMK A01 T01681028  RH  026%=      5-min Rain = 0
KMD1 172257Z 35003KT 17/M03 A3008 RMK A01 T01681031  RH  025%=      5-min Rain = 0
KMD1 172258Z 36003KT 17/M03 A3008 RMK A01 T01671031  RH  026%=      5-min Rain = 0
KMD1 172259Z 02004KT 17/M03 A3008 RMK A01 T01671028  RH  026%=      5-min Rain = 0
KMD1 172300Z 03004KT 17/M03 A3008 RMK A01 T01661029  RH  026%=      5-min Rain = 0
KMD1 172301Z 01006KT 17/M03 A3008 RMK A01 T01651028  RH  026%=      5-min Rain = 0
KMD1 172302Z 36004KT 17/M03 A3008 RMK A01 T01651032  RH  026%=      5-min Rain = 0
KMD1 172303Z 01003KT 16/M03 A3008 RMK A01 T01641033  RH  026%=      5-min Rain = 0
KMD1 172304Z 36003KT 16/M03 A3008 RMK A01 T01641028  RH  027%=      5-min Rain = 0
KMD1 172305Z 35003KT 16/M03 A3008 RMK A01 T01641032  RH  026%=      5-min Rain = 0
KMD1 172306Z 35002KT 16/M03 A3008 RMK A01 T01641030  RH  026%=      5-min Rain = 0
KMD1 172307Z 35003KT 16/M03 A3008 RMK A01 T01641032  RH  026%=      5-min Rain = 0
KMD1 172308Z 33003KT 16/M03 A3008 RMK A01 T01631031  RH  026%=      5-min Rain = 0
KMD1 172309Z 33003KT 16/M03 A3008 RMK A01 T01641030  RH  026%=      5-min Rain = 0
KMD1 172310Z 34003KT 16/M03 A3008 RMK A01 T01631030  RH  027%=      5-min Rain = 0
KMD1 172311Z 36002KT 16/M02 A3008 RMK A01 T01641023  RH  028%=      5-min Rain = 0
KMD1 172312Z 36002KT 16/M03 A3008 RMK A01 T01641028  RH  027%=      5-min Rain = 0
KMD1 172313Z 36002KT 16/M03 A3008 RMK A01 T01641028  RH  027%=      5-min Rain = 0
KMD1 172314Z 00003KT 16/M03 A3008 RMK A01 T01641028  RH  027%=      5-min Rain = 0
KMD1 172315Z 03002KT 16/M03 A3008 RMK A01 T01641025  RH  027%=      5-min Rain = 0
KMD1 172316Z 02002KT 16/M03 A3008 RMK A01 T01631027  RH  027%=      5-min Rain = 0
KMD1 172317Z 02002KT 16/M03 A3008 RMK A01 T01631032  RH  026%=      5-min Rain = 0
KMD1 172318Z 01002KT 16/M03 A3008 RMK A01 T01631032  RH  026%=      5-min Rain = 0
KMD1 172319Z 00003KT 16/M03 A3008 RMK A01 T01631028  RH  027%=      5-min Rain = 0
KMD1 172320Z 02005KT 16/M03 A3008 RMK A01 T01631025  RH  027%=      5-min Rain = 0
KMD1 172321Z 02005KT 16/M03 A3008 RMK A01 T01621026  RH  027%=      5-min Rain = 0
KMD1 172322Z 02005KT 16/M03 A3008 RMK A01 T01611026  RH  028%=      5-min Rain = 0
KMD1 172323Z 02004KT 16/M03 A3008 RMK A01 T01601027  RH  028%=      5-min Rain = 0
KMD1 172324Z 03003KT 16/M03 A3008 RMK A01 T01591027  RH  028%=      5-min Rain = 0
KMD1 172325Z 03003KT 16/M02 A3008 RMK A01 T01591024  RH  028%=      5-min Rain = 0
KMD1 172326Z 04004KT 16/M03 A3008 RMK A01 T01581027  RH  028%=      5-min Rain = 0
KMD1 172327Z 03003KT 16/M03 A3007 RMK A01 T01581031  RH  027%=      5-min Rain = 0
KMD1 172328Z 04004KT 16/M03 A3008 RMK A01 T01581025  RH  028%=      5-min Rain = 0
KMD1 172329Z 04004KT 16/M03 A3008 RMK A01 T01581027  RH  028%=      5-min Rain = 0
KMD1 172330Z 04004KT 16/M03 A3008 RMK A01 T01571029  RH  028%=      5-min Rain = 0
KMD1 172331Z 03004KT 16/M03 A3008 RMK A01 T01571027  RH  028%=      5-min Rain = 0
KMD1 172332Z 03005KT 16/M03 A3008 RMK A01 T01561027  RH  028%=      5-min Rain = 0
KMD1 172333Z 04004KT 16/M03 A3008 RMK A01 T01561028  RH  028%=      5-min Rain = 0
KMD1 172334Z 04004KT 16/M03 A3008 RMK A01 T01561026  RH  029%=      5-min Rain = 0
KMD1 172335Z 04004KT 15/M03 A3008 RMK A01 T01541025  RH  029%=      5-min Rain = 0
KMD1 172336Z 03005KT 15/M03 A3008 RMK A01 T01541026  RH  029%=      5-min Rain = 0
KMD1 172337Z 04004KT 15/M03 A3008 RMK A01 T01531026  RH  029%=      5-min Rain = 0
KMD1 172338Z 04004KT 15/M02 A3008 RMK A01 T01531024  RH  030%=      5-min Rain = 0
KMD1 172339Z 04005KT 15/M02 A3008 RMK A01 T01511023  RH  030%=      5-min Rain = 0
KMD1 172340Z 04005KT 15/M03 A3007 RMK A01 T01511025  RH  030%=      5-min Rain = 0
KMD1 172341Z 04005KT 15/M02 A3007 RMK A01 T01501024  RH  030%=      5-min Rain = 0
KMD1 172342Z 04005KT 15/M02 A3007 RMK A01 T01491024  RH  030%=      5-min Rain = 0
KMD1 172343Z 05004KT 15/M02 A3007 RMK A01 T01481024  RH  030%=      5-min Rain = 0
KMD1 172344Z 05004KT 15/M03 A3007 RMK A01 T01481025  RH  030%=      5-min Rain = 0
KMD1 172345Z 05004KT 15/M03 A3007 RMK A01 T01481026  RH  030%=      5-min Rain = 0
KMD1 172346Z 05004KT 15/M03 A3007 RMK A01 T01471026  RH  030%=      5-min Rain = 0
KMD1 172347Z 05004KT 15/M03 A3007 RMK A01 T01471026  RH  030%=      5-min Rain = 0
KMD1 172348Z 05004KT 15/M03 A3008 RMK A01 T01471027  RH  030%=      5-min Rain = 0
KMD1 172349Z 05004KT 15/M03 A3008 RMK A01 T01461026  RH  031%=      5-min Rain = 0
KMD1 172350Z 05004KT 15/M03 A3008 RMK A01 T01451026  RH  031%=      5-min Rain = 0
KMD1 172351Z 05004KT 15/M03 A3008 RMK A01 T01451026  RH  031%=      5-min Rain = 0
KMD1 172352Z 05004KT 14/M03 A3008 RMK A01 T01431026  RH  031%=      5-min Rain = 0
KMD1 172353Z 05004KT 14/M03 A3008 RMK A01 T01431026  RH  031%=      5-min Rain = 0
KMD1 172354Z 05005KT 14/M03 A3008 RMK A01 T01431027  RH  031%=      5-min Rain = 0
KMD1 172355Z 05005KT 14/M03 A3008 RMK A01 T01421026  RH  031%=      5-min Rain = 0
KMD1 172356Z 05005KT 14/M03 A3008 RMK A01 T01411027  RH  031%=      5-min Rain = 0
KMD1 172357Z 05005KT 14/M03 A3008 RMK A01 T01401027  RH  031%=      5-min Rain = 0
KMD1 172358Z 05005KT 14/M03 A3008 RMK A01 T01391027  RH  032%=      5-min Rain = 0
KMD1 172359Z 05005KT 14/M03 A3008 RMK A01 T01391026  RH  032%=      5-min Rain = 0
KMD1 180000Z 05004KT 14/M03 A3008 RMK A01 T01371026  RH  032%=      5-min Rain = 0
KMD1 180001Z 05004KT 14/M03 A3008 RMK A01 T01351026  RH  033%=      5-min Rain = 0
KMD1 180002Z 05004KT 14/M03 A3008 RMK A01 T01351026  RH  033%=      5-min Rain = 0
KMD1 180003Z 05004KT 13/M03 A3008 RMK A01 T01341026  RH  033%=      5-min Rain = 0
KMD1 180004Z 04003KT 13/M03 A3008 RMK A01 T01341027  RH  033%=      5-min Rain = 0
KMD1 180005Z 04003KT 13/M03 A3008 RMK A01 T01341028  RH  032%=      5-min Rain = 0
KMD1 180006Z 04004KT 14/M03 A3008 RMK A01 T01351029  RH  032%=      5-min Rain = 0
KMD1 180007Z 04004KT 14/M03 A3008 RMK A01 T01351029  RH  032%=      5-min Rain = 0
KMD1 180008Z 04004KT 14/M03 A3008 RMK A01 T01351030  RH  032%=      5-min Rain = 0
KMD1 180009Z 04004KT 14/M03 A3008 RMK A01 T01351029  RH  032%=      5-min Rain = 0
KMD1 180010Z 04005KT 13/M03 A3008 RMK A01 T01341029  RH  032%=      5-min Rain = 0
KMD1 180011Z 04004KT 13/M03 A3008 RMK A01 T01341028  RH  032%=      5-min Rain = 0
KMD1 180012Z 04004KT 13/M03 A3008 RMK A01 T01331029  RH  032%=      5-min Rain = 0
KMD1 180013Z 03005KT 13/M03 A3008 RMK A01 T01321029  RH  033%=      5-min Rain = 0
KMD1 180014Z 04005KT 13/M03 A3008 RMK A01 T01311029  RH  033%=      5-min Rain = 0
KMD1 180015Z 04005KT 13/M03 A3008 RMK A01 T01291026  RH  034%=      5-min Rain = 0
KMD1 180016Z 03005KT 13/M03 A3008 RMK A01 T01271026  RH  034%=      5-min Rain = 0
KMD1 180017Z 03005KT 13/M03 A3008 RMK A01 T01251027  RH  034%=      5-min Rain = 0
KMD1 180018Z 02004KT 13/M03 A3008 RMK A01 T01251026  RH  035%=      5-min Rain = 0
KMD1 180019Z 02004KT 12/M03 A3008 RMK A01 T01241028  RH  035%=      5-min Rain = 0
KMD1 180020Z 02004KT 12/M03 A3009 RMK A01 T01241028  RH  035%=      5-min Rain = 0
KMD1 180021Z 02004KT 12/M03 A3009 RMK A01 T01241027  RH  035%=      5-min Rain = 0
KMD1 180022Z 01004KT 12/M03 A3009 RMK A01 T01231028  RH  035%=      5-min Rain = 0
KMD1 180023Z 01004KT 12/M03 A3009 RMK A01 T01231027  RH  035%=      5-min Rain = 0
KMD1 180024Z 01004KT 12/M03 A3009 RMK A01 T01221028  RH  035%=      5-min Rain = 0
KMD1 180025Z 01004KT 12/M03 A3009 RMK A01 T01221029  RH  035%=      5-min Rain = 0
KMD1 180026Z 02004KT 12/M03 A3009 RMK A01 T01211028  RH  035%=      5-min Rain = 0
KMD1 180027Z 02004KT 12/M03 A3009 RMK A01 T01211029  RH  035%=      5-min Rain = 0
KMD1 180028Z 02004KT 12/M03 A3009 RMK A01 T01201029  RH  035%=      5-min Rain = 0
KMD1 180029Z 01005KT 12/M03 A3009 RMK A01 T01201029  RH  035%=      5-min Rain = 0
KMD1 180030Z 01005KT 12/M03 A3009 RMK A01 T01191030  RH  035%=      5-min Rain = 0
KMD1 180031Z 02005KT 12/M03 A3009 RMK A01 T01191029  RH  035%=      5-min Rain = 0
KMD1 180032Z 02005KT 12/M03 A3009 RMK A01 T01181029  RH  036%=      5-min Rain = 0
KMD1 180033Z 02005KT 12/M03 A3009 RMK A01 T01171029  RH  036%=      5-min Rain = 0
KMD1 180034Z 02005KT 12/M03 A3009 RMK A01 T01151028  RH  037%=      5-min Rain = 0
KMD1 180035Z 03005KT 11/M03 A3009 RMK A01 T01141027  RH  037%=      5-min Rain = 0
KMD1 180036Z 03005KT 11/M03 A3009 RMK A01 T01131027  RH  037%=      5-min Rain = 0
KMD1 180037Z 04005KT 11/M03 A3009 RMK A01 T01121028  RH  038%=      5-min Rain = 0
KMD1 180038Z 05004KT 11/M03 A3009 RMK A01 T01101026  RH  038%=      5-min Rain = 0
KMD1 180039Z 06004KT 11/M03 A3009 RMK A01 T01081025  RH  039%=      5-min Rain = 0
KMD1 180040Z 06004KT 11/M03 A3009 RMK A01 T01061025  RH  040%=      5-min Rain = 0
KMD1 180041Z 06003KT 10/M02 A3009 RMK A01 T01041023  RH  041%=      5-min Rain = 0
KMD1 180042Z 05002KT 10/M02 A3009 RMK A01 T01011022  RH  042%=      5-min Rain = 0
KMD1 180043Z 05002KT 10/M02 A3009 RMK A01 T00991023  RH  042%=      5-min Rain = 0
KMD1 180044Z 04002KT 10/M02 A3009 RMK A01 T00981024  RH  042%=      5-min Rain = 0
KMD1 180045Z 05002KT 10/M03 A3009 RMK A01 T00971025  RH  042%=      5-min Rain = 0
KMD1 180046Z 04002KT 10/M03 A3009 RMK A01 T00971026  RH  042%=      5-min Rain = 0
KMD1 180047Z 04001KT 10/M03 A3009 RMK A01 T00971026  RH  042%=      5-min Rain = 0
KMD1 180048Z 04001KT 10/M03 A3009 RMK A01 T00961028  RH  042%=      5-min Rain = 0
KMD1 180049Z 07001KT 10/M03 A3009 RMK A01 T00961028  RH  042%=      5-min Rain = 0
KMD1 180050Z 10001KT 10/M03 A3009 RMK A01 T00951029  RH  042%=      5-min Rain = 0
KMD1 180051Z 12003KT 09/M03 A3009 RMK A01 T00941030  RH  042%=      5-min Rain = 0
KMD1 180052Z 12005KT 09/M03 A3009 RMK A01 T00941029  RH  042%=      5-min Rain = 0
KMD1 180053Z 10005KT 09/M03 A3009 RMK A01 T00921029  RH  042%=      5-min Rain = 0
KMD1 180054Z 08004KT 09/M03 A3009 RMK A01 T00911030  RH  043%=      5-min Rain = 0
KMD1 180055Z 09004KT 09/M03 A3009 RMK A01 T00931031  RH  042%=      5-min Rain = 0
KMD1 180056Z 09004KT 10/M03 A3009 RMK A01 T00961031  RH  041%=      5-min Rain = 0
KMD1 180057Z 09003KT 10/M03 A3009 RMK A01 T00981030  RH  041%=      5-min Rain = 0
KMD1 180058Z 09004KT 10/M03 A3009 RMK A01 T00971028  RH  041%=      5-min Rain = 0
KMD1 180059Z 08004KT 10/M03 A3009 RMK A01 T00971029  RH  041%=      5-min Rain = 0
KMD1 180100Z 07003KT 10/M03 A301 RMK A01 T00971030  RH  041%=      5-min Rain = 0
KMD1 180101Z 07003KT 10/M03 A301 RMK A01 T00981029  RH  041%=      5-min Rain = 0
KMD1 180102Z 07003KT 10/M03 A301 RMK A01 T00981029  RH  041%=      5-min Rain = 0
KMD1 180103Z 07003KT 10/M03 A301 RMK A01 T00981030  RH  040%=      5-min Rain = 0
KMD1 180104Z 06003KT 10/M03 A301 RMK A01 T00991030  RH  040%=      5-min Rain = 0
KMD1 180105Z 07003KT 10/M03 A301 RMK A01 T00991030  RH  040%=      5-min Rain = 0
KMD1 180106Z 07003KT 10/M03 A301 RMK A01 T01001030  RH  040%=      5-min Rain = 0
KMD1 180107Z 07003KT 10/M03 A301 RMK A01 T01001031  RH  040%=      5-min Rain = 0
KMD1 180108Z 07003KT 10/M03 A301 RMK A01 T01001031  RH  040%=      5-min Rain = 0
KMD1 180109Z 07002KT 10/M03 A301 RMK A01 T01001031  RH  040%=      5-min Rain = 0
KMD1 180110Z 08002KT 10/M03 A301 RMK A01 T00991031  RH  040%=      5-min Rain = 0
KMD1 180111Z 09002KT 10/M03 A301 RMK A01 T00991030  RH  040%=      5-min Rain = 0
KMD1 180112Z 10002KT 10/M03 A301 RMK A01 T00971030  RH  041%=      5-min Rain = 0
KMD1 180113Z 10002KT 10/M03 A301 RMK A01 T00961030  RH  041%=      5-min Rain = 0
KMD1 180114Z 09003KT 10/M03 A301 RMK A01 T00961031  RH  041%=      5-min Rain = 0
KMD1 180115Z 09003KT 10/M03 A301 RMK A01 T00951030  RH  041%=      5-min Rain = 0
KMD1 180116Z 10004KT 10/M03 A301 RMK A01 T00951030  RH  041%=      5-min Rain = 0
KMD1 180117Z 10005KT 09/M03 A301 RMK A01 T00941030  RH  042%=      5-min Rain = 0
KMD1 180118Z 10005KT 09/M03 A301 RMK A01 T00941031  RH  041%=      5-min Rain = 0
KMD1 180119Z 10005KT 09/M03 A301 RMK A01 T00931032  RH  041%=      5-min Rain = 0
KMD1 180120Z 09004KT 09/M03 A301 RMK A01 T00921033  RH  041%=      5-min Rain = 0
KMD1 180121Z 08004KT 09/M03 A301 RMK A01 T00921034  RH  041%=      5-min Rain = 0
KMD1 180122Z 08004KT 09/M03 A301 RMK A01 T00921033  RH  041%=      5-min Rain = 0
KMD1 180123Z 09004KT 09/M03 A301 RMK A01 T00921031  RH  042%=      5-min Rain = 0
KMD1 180124Z 08004KT 09/M03 A301 RMK A01 T00911031  RH  042%=      5-min Rain = 0
KMD1 180125Z 09004KT 09/M03 A301 RMK A01 T00911031  RH  042%=      5-min Rain = 0
KMD1 180126Z 08005KT 09/M03 A301 RMK A01 T00911031  RH  042%=      5-min Rain = 0
KMD1 180127Z 07005KT 09/M03 A301 RMK A01 T00901028  RH  043%=      5-min Rain = 0
KMD1 180128Z 07005KT 09/M03 A301 RMK A01 T00891028  RH  044%=      5-min Rain = 0
KMD1 180129Z 07005KT 09/M03 A301 RMK A01 T00881030  RH  043%=      5-min Rain = 0
KMD1 180130Z 07004KT 09/M03 A301 RMK A01 T00891030  RH  043%=      5-min Rain = 0
KMD1 180131Z 06003KT 09/M03 A301 RMK A01 T00881030  RH  043%=      5-min Rain = 0
KMD1 180132Z 06003KT 09/M03 A301 RMK A01 T00871030  RH  043%=      5-min Rain = 0
KMD1 180133Z 06002KT 09/M03 A301 RMK A01 T00871030  RH  044%=      5-min Rain = 0
KMD1 180134Z 06001KT 09/M03 A301 RMK A01 T00861029  RH  044%=      5-min Rain = 0
KMD1 180135Z 06001KT 09/M03 A301 RMK A01 T00851029  RH  045%=      5-min Rain = 0
KMD1 180136Z 06001KT 08/M03 A301 RMK A01 T00841029  RH  045%=      5-min Rain = 0
KMD1 180137Z 07001KT 08/M03 A301 RMK A01 T00841029  RH  045%=      5-min Rain = 0
KMD1 180138Z 08002KT 08/M03 A3009 RMK A01 T00841029  RH  045%=      5-min Rain = 0
KMD1 180139Z 07002KT 08/M03 A3009 RMK A01 T00831030  RH  045%=      5-min Rain = 0
KMD1 180140Z 07002KT 08/M03 A3009 RMK A01 T00831032  RH  044%=      5-min Rain = 0
KMD1 180141Z 07002KT 08/M03 A3009 RMK A01 T00841033  RH  044%=      5-min Rain = 0
KMD1 180142Z 07002KT 08/M03 A3009 RMK A01 T00841034  RH  043%=      5-min Rain = 0
KMD1 180143Z 08002KT 09/M03 A301 RMK A01 T00851034  RH  043%=      5-min Rain = 0
KMD1 180144Z 08002KT 09/M04 A301 RMK A01 T00851035  RH  043%=      5-min Rain = 0
KMD1 180145Z 08002KT 09/M04 A301 RMK A01 T00851035  RH  043%=      5-min Rain = 0
KMD1 180146Z 08002KT 09/M04 A301 RMK A01 T00851035  RH  042%=      5-min Rain = 0
KMD1 180147Z 08002KT 09/M04 A301 RMK A01 T00851036  RH  042%=      5-min Rain = 0
KMD1 180148Z 07002KT 09/M04 A301 RMK A01 T00851036  RH  042%=      5-min Rain = 0
KMD1 180149Z 07003KT 09/M03 A301 RMK A01 T00851033  RH  043%=      5-min Rain = 0
KMD1 180150Z 06002KT 09/M03 A301 RMK A01 T00851034  RH  043%=      5-min Rain = 0
KMD1 180151Z 05002KT 08/M04 A301 RMK A01 T00841035  RH  043%=      5-min Rain = 0
KMD1 180152Z 06002KT 08/M04 A301 RMK A01 T00841035  RH  043%=      5-min Rain = 0
KMD1 180153Z 06002KT 08/M03 A301 RMK A01 T00831034  RH  043%=      5-min Rain = 0
KMD1 180154Z 05002KT 08/M03 A301 RMK A01 T00831033  RH  044%=      5-min Rain = 0
KMD1 180155Z 05002KT 08/M03 A301 RMK A01 T00821032  RH  045%=      5-min Rain = 0
KMD1 180156Z 05002KT 08/M03 A301 RMK A01 T00801031  RH  046%=      5-min Rain = 0
KMD1 180157Z 05002KT 08/M03 A301 RMK A01 T00781031  RH  046%=      5-min Rain = 0
KMD1 180158Z 05003KT 08/M03 A301 RMK A01 T00761029  RH  047%=      5-min Rain = 0
KMD1 180159Z 06003KT 07/M03 A301 RMK A01 T00741028  RH  048%=      5-min Rain = 0
KMD1 180200Z 06003KT 07/M03 A301 RMK A01 T00731029  RH  048%=      5-min Rain = 0
KMD1 180201Z 06004KT 07/M03 A301 RMK A01 T00731028  RH  049%=      5-min Rain = 0
KMD1 180202Z 06003KT 07/M03 A301 RMK A01 T00701027  RH  050%=      5-min Rain = 0
KMD1 180203Z 06003KT 07/M03 A301 RMK A01 T00681029  RH  050%=      5-min Rain = 0
KMD1 180204Z 06003KT 07/M03 A301 RMK A01 T00671029  RH  050%=      5-min Rain = 0
KMD1 180205Z 05003KT 07/M03 A301 RMK A01 T00651029  RH  051%=      5-min Rain = 0
KMD1 180206Z 05003KT 06/M03 A301 RMK A01 T00621028  RH  053%=      5-min Rain = 0
KMD1 180207Z 06003KT 06/M03 A301 RMK A01 T00591027  RH  054%=      5-min Rain = 0
KMD1 180208Z 06004KT 06/M03 A301 RMK A01 T00571028  RH  054%=      5-min Rain = 0
KMD1 180209Z 06004KT 06/M03 A301 RMK A01 T00571029  RH  054%=      5-min Rain = 0
KMD1 180210Z 06003KT 06/M03 A301 RMK A01 T00581029  RH  054%=      5-min Rain = 0
KMD1 180211Z 06003KT 06/M03 A301 RMK A01 T00591030  RH  053%=      5-min Rain = 0
KMD1 180212Z 06003KT 06/M03 A301 RMK A01 T00601030  RH  053%=      5-min Rain = 0
KMD1 180213Z 06003KT 06/M03 A301 RMK A01 T00621030  RH  052%=      5-min Rain = 0
KMD1 180214Z 06003KT 06/M03 A301 RMK A01 T00631030  RH  051%=      5-min Rain = 0
KMD1 180215Z 06003KT 06/M03 A301 RMK A01 T00631030  RH  051%=      5-min Rain = 0
KMD1 180216Z 06003KT 06/M03 A301 RMK A01 T00631030  RH  051%=      5-min Rain = 0
KMD1 180217Z 06003KT 06/M03 A301 RMK A01 T00631032  RH  051%=      5-min Rain = 0
KMD1 180218Z 06003KT 07/M03 A301 RMK A01 T00651032  RH  050%=      5-min Rain = 0
KMD1 180219Z 05003KT 07/M03 A301 RMK A01 T00661032  RH  049%=      5-min Rain = 0
KMD1 180220Z 05003KT 07/M03 A301 RMK A01 T00661032  RH  050%=      5-min Rain = 0
KMD1 180221Z 05003KT 07/M03 A301 RMK A01 T00661034  RH  049%=      5-min Rain = 0
KMD1 180222Z 05004KT 07/M03 A301 RMK A01 T00681033  RH  049%=      5-min Rain = 0
KMD1 180223Z 05004KT 07/M03 A301 RMK A01 T00681033  RH  048%=      5-min Rain = 0
KMD1 180224Z 05003KT 07/M03 A301 RMK A01 T00681033  RH  049%=      5-min Rain = 0
KMD1 180225Z 06003KT 07/M03 A301 RMK A01 T00661032  RH  049%=      5-min Rain = 0
KMD1 180226Z 06003KT 07/M03 A301 RMK A01 T00661032  RH  050%=      5-min Rain = 0
KMD1 180227Z 05003KT 07/M03 A301 RMK A01 T00651032  RH  050%=      5-min Rain = 0
KMD1 180228Z 05003KT 06/M03 A301 RMK A01 T00631032  RH  050%=      5-min Rain = 0
KMD1 180229Z 05003KT 06/M03 A301 RMK A01 T00631032  RH  050%=      5-min Rain = 0
KMD1 180230Z 04003KT 06/M03 A301 RMK A01 T00631032  RH  050%=      5-min Rain = 0
KMD1 180231Z 04003KT 06/M03 A301 RMK A01 T00641031  RH  051%=      5-min Rain = 0
KMD1 180232Z 04003KT 06/M03 A301 RMK A01 T00621030  RH  051%=      5-min Rain = 0
KMD1 180233Z 04003KT 06/M03 A301 RMK A01 T00611031  RH  052%=      5-min Rain = 0
KMD1 180234Z 04003KT 06/M03 A301 RMK A01 T00601031  RH  052%=      5-min Rain = 0
KMD1 180235Z 03003KT 06/M03 A301 RMK A01 T00591031  RH  052%=      5-min Rain = 0
KMD1 180236Z 04003KT 06/M03 A301 RMK A01 T00591032  RH  052%=      5-min Rain = 0
KMD1 180237Z 03003KT 06/M03 A301 RMK A01 T00591032  RH  052%=      5-min Rain = 0
KMD1 180238Z 03003KT 06/M03 A301 RMK A01 T00581031  RH  053%=      5-min Rain = 0
KMD1 180239Z 03003KT 06/M03 A301 RMK A01 T00561031  RH  053%=      5-min Rain = 0
KMD1 180240Z 02003KT 06/M03 A301 RMK A01 T00561031  RH  054%=      5-min Rain = 0
KMD1 180241Z 03003KT 05/M03 A301 RMK A01 T00541030  RH  055%=      5-min Rain = 0
KMD1 180242Z 03003KT 05/M03 A301 RMK A01 T00531031  RH  055%=      5-min Rain = 0
KMD1 180243Z 03003KT 05/M03 A301 RMK A01 T00521031  RH  055%=      5-min Rain = 0
KMD1 180244Z 02003KT 05/M03 A301 RMK A01 T00501030  RH  056%=      5-min Rain = 0
KMD1 180245Z 02003KT 05/M03 A301 RMK A01 T00481030  RH  057%=      5-min Rain = 0
KMD1 180246Z 02003KT 05/M03 A301 RMK A01 T00491031  RH  056%=      5-min Rain = 0
KMD1 180247Z 02004KT 05/M03 A301 RMK A01 T00481029  RH  058%=      5-min Rain = 0
KMD1 180248Z 02004KT 05/M03 A301 RMK A01 T00461029  RH  058%=      5-min Rain = 0
KMD1 180249Z 01003KT 04/M03 A301 RMK A01 T00441030  RH  059%=      5-min Rain = 0
KMD1 180250Z 02003KT 04/M03 A301 RMK A01 T00421029  RH  060%=      5-min Rain = 0
KMD1 180251Z 00004KT 04/M03 A301 RMK A01 T00411029  RH  060%=      5-min Rain = 0
KMD1 180252Z 01004KT 04/M03 A301 RMK A01 T00401030  RH  060%=      5-min Rain = 0
KMD1 180253Z 02004KT 04/M03 A301 RMK A01 T00421032  RH  059%=      5-min Rain = 0
KMD1 180254Z 01004KT 04/M03 A301 RMK A01 T00441031  RH  058%=      5-min Rain = 0
KMD1 180255Z 00004KT 04/M03 A301 RMK A01 T00441031  RH  058%=      5-min Rain = 0
KMD1 180256Z 00004KT 04/M03 A301 RMK A01 T00411031  RH  060%=      5-min Rain = 0
KMD1 180257Z 35004KT 04/M03 A3011 RMK A01 T00391030  RH  061%=      5-min Rain = 0
KMD1 180258Z 35004KT 04/M03 A3011 RMK A01 T00381029  RH  062%=      5-min Rain = 0
KMD1 180259Z 35001KT 04/M03 A3011 RMK A01 T00371029  RH  062%=      5-min Rain = 0
KMD1 180300Z 31001KT 04/M03 A3011 RMK A01 T00371028  RH  062%=      5-min Rain = 0
KMD1 180301Z 00000KT 04/M03 A3011 RMK A01 T00371026  RH  063%=      5-min Rain = 0
KMD1 180302Z 00000KT 04/M03 A3011 RMK A01 T00371026  RH  063%=      5-min Rain = 0
KMD1 180303Z 23000KT 04/M03 A3011 RMK A01 T00361027  RH  063%=      5-min Rain = 0
KMD1 180304Z 00000KT 04/M03 A3011 RMK A01 T00361028  RH  063%=      5-min Rain = 0
KMD1 180305Z 11000KT 04/M03 A3011 RMK A01 T00351028  RH  064%=      5-min Rain = 0
KMD1 180306Z 00000KT 03/M03 A3011 RMK A01 T00341027  RH  064%=      5-min Rain = 0
KMD1 180307Z 00000KT 03/M03 A3011 RMK A01 T00341027  RH  064%=      5-min Rain = 0
KMD1 180308Z 00000KT 03/M03 A3011 RMK A01 T00331029  RH  064%=      5-min Rain = 0
KMD1 180309Z 36001KT 03/M03 A3011 RMK A01 T00331031  RH  063%=      5-min Rain = 0
KMD1 180310Z 00000KT 03/M03 A3011 RMK A01 T00331033  RH  062%=      5-min Rain = 0
KMD1 180311Z 34001KT 03/M04 A3011 RMK A01 T00331035  RH  061%=      5-min Rain = 0
KMD1 180312Z 35001KT 03/M04 A3011 RMK A01 T00341035  RH  061%=      5-min Rain = 0
KMD1 180313Z 36001KT 03/M04 A3011 RMK A01 T00341035  RH  060%=      5-min Rain = 0
KMD1 180314Z 00000KT 03/M04 A3011 RMK A01 T00331036  RH  061%=      5-min Rain = 0
KMD1 180315Z 00000KT 03/M04 A3011 RMK A01 T00331035  RH  061%=      5-min Rain = 0
KMD1 180316Z 00000KT 03/M04 A3011 RMK A01 T00321035  RH  062%=      5-min Rain = 0
KMD1 180317Z 00000KT 03/M04 A3011 RMK A01 T00311035  RH  062%=      5-min Rain = 0
KMD1 180318Z 00000KT 03/M03 A3011 RMK A01 T00301034  RH  063%=      5-min Rain = 0
KMD1 180319Z 00000KT 03/M03 A3011 RMK A01 T00301034  RH  063%=      5-min Rain = 0
KMD1 180320Z 35001KT 03/M03 A3011 RMK A01 T00291034  RH  063%=      5-min Rain = 0
KMD1 180321Z 19001KT 03/M03 A3011 RMK A01 T00291034  RH  063%=      5-min Rain = 0
KMD1 180322Z 19001KT 03/M03 A3011 RMK A01 T00281034  RH  063%=      5-min Rain = 0
KMD1 180323Z 20001KT 03/M03 A3011 RMK A01 T00281034  RH  064%=      5-min Rain = 0
KMD1 180324Z 21001KT 03/M03 A3011 RMK A01 T00271034  RH  064%=      5-min Rain = 0
KMD1 180325Z 22001KT 03/M03 A3011 RMK A01 T00261033  RH  065%=      5-min Rain = 0
KMD1 180326Z 22001KT 03/M03 A3011 RMK A01 T00251032  RH  066%=      5-min Rain = 0
KMD1 180327Z 22000KT 02/M03 A3011 RMK A01 T00241032  RH  066%=      5-min Rain = 0
KMD1 180328Z 22000KT 02/M03 A3011 RMK A01 T00241033  RH  066%=      5-min Rain = 0
KMD1 180329Z 22000KT 02/M03 A3011 RMK A01 T00241033  RH  066%=      5-min Rain = 0
KMD1 180330Z 00000KT 02/M03 A3012 RMK A01 T00241032  RH  067%=      5-min Rain = 0
KMD1 180331Z 00000KT 02/M03 A3012 RMK A01 T00241030  RH  068%=      5-min Rain = 0
KMD1 180332Z 22000KT 02/M03 A3012 RMK A01 T00241029  RH  068%=      5-min Rain = 0
KMD1 180333Z 00000KT 02/M03 A3012 RMK A01 T00231029  RH  069%=      5-min Rain = 0
KMD1 180334Z 00000KT 02/M03 A3012 RMK A01 T00231029  RH  069%=      5-min Rain = 0
KMD1 180335Z 00000KT 02/M03 A3012 RMK A01 T00241029  RH  068%=      5-min Rain = 0
KMD1 180336Z 00000KT 02/M03 A3012 RMK A01 T00241029  RH  068%=      5-min Rain = 0
KMD1 180337Z 00000KT 03/M03 A3012 RMK A01 T00251028  RH  068%=      5-min Rain = 0
KMD1 180338Z 00000KT 03/M03 A3012 RMK A01 T00261028  RH  068%=      5-min Rain = 0
KMD1 180339Z 22000KT 03/M03 A3012 RMK A01 T00261028  RH  067%=      5-min Rain = 0
KMD1 180340Z 23001KT 03/M03 A3012 RMK A01 T00271029  RH  066%=      5-min Rain = 0
KMD1 180341Z 24001KT 03/M03 A3012 RMK A01 T00271030  RH  066%=      5-min Rain = 0
KMD1 180342Z 25000KT 03/M03 A3012 RMK A01 T00281030  RH  066%=      5-min Rain = 0
KMD1 180343Z 25000KT 03/M03 A3012 RMK A01 T00281031  RH  065%=      5-min Rain = 0
KMD1 180344Z 25000KT 03/M03 A3012 RMK A01 T00281033  RH  064%=      5-min Rain = 0
KMD1 180345Z 25000KT 03/M04 A3012 RMK A01 T00261035  RH  064%=      5-min Rain = 0
KMD1 180346Z 25000KT 03/M03 A3011 RMK A01 T00251034  RH  065%=      5-min Rain = 0
KMD1 180347Z 00000KT 03/M03 A3011 RMK A01 T00251033  RH  066%=      5-min Rain = 0
KMD1 180348Z 00000KT 03/M03 A3011 RMK A01 T00251033  RH  066%=      5-min Rain = 0
KMD1 180349Z 00000KT 03/M03 A3011 RMK A01 T00251033  RH  065%=      5-min Rain = 0
KMD1 180350Z 00000KT 03/M03 A3011 RMK A01 T00251033  RH  066%=      5-min Rain = 0
KMD1 180351Z 00000KT 03/M03 A3011 RMK A01 T00251032  RH  066%=      5-min Rain = 0
KMD1 180352Z 00000KT 03/M03 A3011 RMK A01 T00261032  RH  066%=      5-min Rain = 0
KMD1 180353Z 00000KT 03/M03 A3011 RMK A01 T00261032  RH  066%=      5-min Rain = 0
KMD1 180354Z 25000KT 03/M03 A3011 RMK A01 T00271032  RH  065%=      5-min Rain = 0
KMD1 180355Z 25000KT 03/M03 A3011 RMK A01 T00271032  RH  065%=      5-min Rain = 0
KMD1 180356Z 25000KT 03/M03 A3011 RMK A01 T00281031  RH  065%=      5-min Rain = 0
KMD1 180357Z 25000KT 03/M03 A3011 RMK A01 T00261032  RH  066%=      5-min Rain = 0
KMD1 180358Z 25000KT 02/M03 A3011 RMK A01 T00241033  RH  066%=      5-min Rain = 0
KMD1 180359Z 29001KT 02/M03 A3011 RMK A01 T00231034  RH  066%=      5-min Rain = 0
KMD1 180400Z 29001KT 02/M03 A3011 RMK A01 T00221034  RH  066%=      5-min Rain = 0
KMD1 180401Z 29001KT 02/M04 A3011 RMK A01 T00211035  RH  067%=      5-min Rain = 0
KMD1 180402Z 28000KT 02/M04 A3011 RMK A01 T00191035  RH  067%=      5-min Rain = 0
KMD1 180403Z 27001KT 02/M04 A3011 RMK A01 T00181035  RH  068%=      5-min Rain = 0
KMD1 180404Z 27001KT 02/M04 A3011 RMK A01 T00171035  RH  069%=      5-min Rain = 0
KMD1 180405Z 27001KT 02/M04 A3011 RMK A01 T00161035  RH  069%=      5-min Rain = 0
KMD1 180406Z 26001KT 02/M04 A3011 RMK A01 T00151035  RH  069%=      5-min Rain = 0
KMD1 180407Z 25001KT 02/M04 A3011 RMK A01 T00151035  RH  070%=      5-min Rain = 0
KMD1 180408Z 25001KT 01/M03 A3011 RMK A01 T00141034  RH  070%=      5-min Rain = 0
KMD1 180409Z 25001KT 01/M03 A3011 RMK A01 T00141034  RH  071%=      5-min Rain = 0
KMD1 180410Z 24001KT 01/M03 A3011 RMK A01 T00141033  RH  071%=      5-min Rain = 0
KMD1 180411Z 23001KT 01/M03 A3011 RMK A01 T00141033  RH  071%=      5-min Rain = 0
KMD1 180412Z 23001KT 01/M03 A3011 RMK A01 T00141034  RH  071%=      5-min Rain = 0
KMD1 180413Z 23001KT 01/M04 A3011 RMK A01 T00141035  RH  070%=      5-min Rain = 0
KMD1 180414Z 23001KT 01/M04 A3011 RMK A01 T00141035  RH  070%=      5-min Rain = 0
KMD1 180415Z 24001KT 02/M03 A3011 RMK A01 T00151032  RH  071%=      5-min Rain = 0
KMD1 180416Z 26002KT 02/M03 A3011 RMK A01 T00151031  RH  071%=      5-min Rain = 0
KMD1 180417Z 27001KT 02/M03 A3011 RMK A01 T00151031  RH  071%=      5-min Rain = 0
KMD1 180418Z 27001KT 02/M03 A3011 RMK A01 T00151031  RH  071%=      5-min Rain = 0
KMD1 180419Z 27001KT 01/M03 A3011 RMK A01 T00141032  RH  072%=      5-min Rain = 0
KMD1 180420Z 27001KT 01/M03 A3011 RMK A01 T00131032  RH  072%=      5-min Rain = 0
KMD1 180421Z 00000KT 01/M03 A3011 RMK A01 T00121032  RH  072%=      5-min Rain = 0
KMD1 180422Z 26001KT 01/M03 A3011 RMK A01 T00121032  RH  073%=      5-min Rain = 0
KMD1 180423Z 26001KT 01/M03 A3011 RMK A01 T00121031  RH  073%=      5-min Rain = 0
KMD1 180424Z 25001KT 01/M03 A3011 RMK A01 T00111031  RH  073%=      5-min Rain = 0
KMD1 180425Z 25001KT 01/M03 A3011 RMK A01 T00111030  RH  074%=      5-min Rain = 0
KMD1 180426Z 25001KT 01/M03 A3011 RMK A01 T00111029  RH  075%=      5-min Rain = 0
KMD1 180427Z 25001KT 01/M03 A3011 RMK A01 T00111029  RH  075%=      5-min Rain = 0
KMD1 180428Z 25001KT 01/M03 A3011 RMK A01 T00111028  RH  075%=      5-min Rain = 0
KMD1 180429Z 24002KT 01/M03 A3011 RMK A01 T00101029  RH  075%=      5-min Rain = 0
KMD1 180430Z 23002KT 01/M03 A3011 RMK A01 T00101028  RH  076%=      5-min Rain = 0
KMD1 180431Z 23002KT 01/M03 A3011 RMK A01 T00101028  RH  076%=      5-min Rain = 0
KMD1 180432Z 22002KT 01/M03 A3011 RMK A01 T00101028  RH  076%=      5-min Rain = 0
KMD1 180433Z 22002KT 01/M03 A3011 RMK A01 T00091028  RH  076%=      5-min Rain = 0
KMD1 180434Z 22003KT 01/M03 A3011 RMK A01 T00091028  RH  076%=      5-min Rain = 0
KMD1 180435Z 22003KT 01/M03 A3011 RMK A01 T00091029  RH  076%=      5-min Rain = 0
KMD1 180436Z 23003KT 01/M03 A3011 RMK A01 T00081029  RH  076%=      5-min Rain = 0
KMD1 180437Z 23003KT 01/M03 A3011 RMK A01 T00081029  RH  076%=      5-min Rain = 0
KMD1 180438Z 24002KT 01/M03 A3011 RMK A01 T00081029  RH  076%=      5-min Rain = 0
KMD1 180439Z 24002KT 01/M03 A3011 RMK A01 T00081029  RH  076%=      5-min Rain = 0
KMD1 180440Z 24002KT 01/M03 A3011 RMK A01 T00071029  RH  076%=      5-min Rain = 0
KMD1 180441Z 24002KT 01/M03 A3011 RMK A01 T00051031  RH  077%=      5-min Rain = 0
KMD1 180442Z 24002KT 00/M03 A3011 RMK A01 T00031032  RH  077%=      5-min Rain = 0
KMD1 180443Z 25002KT 00/M03 A3011 RMK A01 T00031033  RH  077%=      5-min Rain = 0
KMD1 180444Z 25002KT 00/M03 A3011 RMK A01 T00031033  RH  077%=      5-min Rain = 0
KMD1 180445Z 25002KT 00/M03 A3011 RMK A01 T00031033  RH  077%=      5-min Rain = 0
KMD1 180446Z 26002KT 00/M03 A3011 RMK A01 T00041032  RH  077%=      5-min Rain = 0
KMD1 180447Z 27001KT 01/M03 A3011 RMK A01 T00061031  RH  076%=      5-min Rain = 0
KMD1 180448Z 27001KT 01/M03 A3011 RMK A01 T00061031  RH  076%=      5-min Rain = 0
KMD1 180449Z 27001KT 01/M03 A3011 RMK A01 T00071031  RH  076%=      5-min Rain = 0
KMD1 180450Z 28001KT 01/M03 A3011 RMK A01 T00071033  RH  075%=      5-min Rain = 0
KMD1 180451Z 28002KT 01/M03 A3011 RMK A01 T00071034  RH  074%=      5-min Rain = 0
KMD1 180452Z 28002KT 01/M03 A3011 RMK A01 T00071034  RH  074%=      5-min Rain = 0
KMD1 180453Z 27002KT 01/M03 A3011 RMK A01 T00071033  RH  074%=      5-min Rain = 0
KMD1 180454Z 27002KT 01/M03 A3011 RMK A01 T00081033  RH  074%=      5-min Rain = 0
KMD1 180455Z 27002KT 01/M03 A3011 RMK A01 T00081034  RH  074%=      5-min Rain = 0
KMD1 180456Z 26002KT 01/M03 A3011 RMK A01 T00081034  RH  073%=      5-min Rain = 0
KMD1 180457Z 26001KT 01/M04 A3011 RMK A01 T00081035  RH  073%=      5-min Rain = 0
KMD1 180458Z 26001KT 01/M04 A3011 RMK A01 T00071036  RH  073%=      5-min Rain = 0
KMD1 180459Z 26000KT 01/M04 A3011 RMK A01 T00071036  RH  073%=      5-min Rain = 0
KMD1 180500Z 00000KT 01/M04 A301 RMK A01 T00061037  RH  073%=      5-min Rain = 0
KMD1 180501Z 00000KT 01/M04 A301 RMK A01 T00051038  RH  073%=      5-min Rain = 0
KMD1 180502Z 00000KT 00/M04 A301 RMK A01 T00031039  RH  074%=      5-min Rain = 0
KMD1 180503Z 00000KT 00/M04 A301 RMK A01 T00011040  RH  074%=      5-min Rain = 0
KMD1 180504Z 31000KT M00/M04 A301 RMK A01 T10011039  RH  075%=      5-min Rain = 0
KMD1 180505Z 30001KT M00/M04 A301 RMK A01 T10021039  RH  076%=      5-min Rain = 0
KMD1 180506Z 28001KT M00/M04 A301 RMK A01 T10021038  RH  077%=      5-min Rain = 0
KMD1 180507Z 28001KT M00/M04 A301 RMK A01 T10011038  RH  076%=      5-min Rain = 0
KMD1 180508Z 28000KT 00/04 A301 RMK A01 T00000-37  RH  076%=      5-min Rain = 0
KMD1 180509Z 27001KT 00/M04 A301 RMK A01 T00011038  RH  075%=      5-min Rain = 0
KMD1 180510Z 27001KT 00/M04 A301 RMK A01 T00011038  RH  075%=      5-min Rain = 0
KMD1 180511Z 27001KT 00/M04 A301 RMK A01 T00011038  RH  075%=      5-min Rain = 0
KMD1 180512Z 27000KT 00/M04 A301 RMK A01 T00011038  RH  075%=      5-min Rain = 0
KMD1 180513Z 27001KT 00/04 A301 RMK A01 T00000-38  RH  075%=      5-min Rain = 0
KMD1 180514Z 27000KT 00/04 A301 RMK A01 T00-00-37  RH  076%=      5-min Rain = 0
KMD1 180515Z 27000KT 00/04 A301 RMK A01 T00-00-37  RH  076%=      5-min Rain = 0
KMD1 180516Z 00000KT M00/M04 A301 RMK A01 T10011038  RH  076%=      5-min Rain = 0
KMD1 180517Z 00000KT M00/M04 A301 RMK A01 T10011038  RH  076%=      5-min Rain = 0
KMD1 180518Z 27000KT M00/M04 A301 RMK A01 T10011038  RH  077%=      5-min Rain = 0
KMD1 180519Z 00000KT M00/M04 A301 RMK A01 T10021037  RH  077%=      5-min Rain = 0
KMD1 180520Z 34000KT M00/M04 A301 RMK A01 T10021037  RH  077%=      5-min Rain = 0
KMD1 180521Z 34000KT M00/M04 A301 RMK A01 T10021038  RH  077%=      5-min Rain = 0
KMD1 180522Z 34000KT M00/M04 A301 RMK A01 T10021038  RH  076%=      5-min Rain = 0
KMD1 180523Z 29000KT M00/M04 A301 RMK A01 T10021038  RH  077%=      5-min Rain = 0
KMD1 180524Z 29000KT M00/M04 A301 RMK A01 T10031039  RH  077%=      5-min Rain = 0
KMD1 180525Z 28001KT M00/M04 A301 RMK A01 T10031039  RH  077%=      5-min Rain = 0
KMD1 180526Z 27001KT M00/M04 A301 RMK A01 T10041039  RH  077%=      5-min Rain = 0
KMD1 180527Z 27001KT M00/M04 A301 RMK A01 T10041039  RH  077%=      5-min Rain = 0
KMD1 180528Z 27001KT M00/M04 A301 RMK A01 T10031039  RH  077%=      5-min Rain = 0
KMD1 180529Z 27001KT M00/M04 A301 RMK A01 T10031039  RH  077%=      5-min Rain = 0
KMD1 180530Z 27001KT M00/M04 A301 RMK A01 T10031039  RH  077%=      5-min Rain = 0
KMD1 180531Z 27001KT M00/M04 A301 RMK A01 T10031039  RH  077%=      5-min Rain = 0
KMD1 180532Z 27001KT M00/M04 A301 RMK A01 T10031039  RH  077%=      5-min Rain = 0
KMD1 180533Z 27000KT M00/M04 A301 RMK A01 T10031039  RH  077%=      5-min Rain = 0
KMD1 180534Z 00000KT M00/M04 A301 RMK A01 T10031039  RH  077%=      5-min Rain = 0
KMD1 180535Z 27000KT M00/M04 A301 RMK A01 T10041039  RH  077%=      5-min Rain = 0
KMD1 180536Z 00000KT M00/M04 A301 RMK A01 T10041040  RH  077%=      5-min Rain = 0
KMD1 180537Z 00000KT M01/M04 A301 RMK A01 T10051040  RH  077%=      5-min Rain = 0
KMD1 180538Z 27000KT M01/M04 A301 RMK A01 T10061040  RH  078%=      5-min Rain = 0
KMD1 180539Z 27001KT M01/M04 A301 RMK A01 T10061039  RH  078%=      5-min Rain = 0
KMD1 180540Z 27001KT M01/M04 A301 RMK A01 T10061038  RH  079%=      5-min Rain = 0
KMD1 180541Z 25002KT M01/M04 A301 RMK A01 T10061036  RH  080%=      5-min Rain = 0
KMD1 180542Z 24002KT M01/M04 A301 RMK A01 T10051035  RH  080%=      5-min Rain = 0
KMD1 180543Z 25001KT M01/M04 A301 RMK A01 T10061037  RH  080%=      5-min Rain = 0
KMD1 180544Z 25001KT M01/M04 A301 RMK A01 T10061037  RH  079%=      5-min Rain = 0
KMD1 180545Z 25002KT M01/M04 A301 RMK A01 T10061038  RH  079%=      5-min Rain = 0
KMD1 180546Z 25002KT M01/M04 A301 RMK A01 T10071038  RH  080%=      5-min Rain = 0
KMD1 180547Z 25001KT M01/M04 A301 RMK A01 T10081038  RH  080%=      5-min Rain = 0
KMD1 180548Z 27001KT M01/M04 A3009 RMK A01 T10101039  RH  081%=      5-min Rain = 0
KMD1 180549Z 28001KT M01/M04 A3009 RMK A01 T10101039  RH  081%=      5-min Rain = 0
KMD1 180550Z 28001KT M01/M04 A3009 RMK A01 T10101038  RH  081%=      5-min Rain = 0
KMD1 180551Z 28000KT M01/M04 A3009 RMK A01 T10111039  RH  081%=      5-min Rain = 0
KMD1 180552Z 28000KT M01/M04 A3009 RMK A01 T10111038  RH  081%=      5-min Rain = 0
KMD1 180553Z 28001KT M01/M04 A3009 RMK A01 T10111038  RH  082%=      5-min Rain = 0
KMD1 180554Z 28002KT M01/M04 A3009 RMK A01 T10111038  RH  082%=      5-min Rain = 0
KMD1 180555Z 28001KT M01/M04 A3009 RMK A01 T10131039  RH  082%=      5-min Rain = 0
KMD1 180556Z 28000KT M01/M04 A3009 RMK A01 T10141039  RH  083%=      5-min Rain = 0
KMD1 180557Z 28000KT M02/M04 A3009 RMK A01 T10151040  RH  083%=      5-min Rain = 0
KMD1 180558Z 00000KT M02/M04 A3009 RMK A01 T10151040  RH  083%=      5-min Rain = 0
KMD1 180559Z 00000KT M02/M04 A3009 RMK A01 T10151040  RH  083%=      5-min Rain = 0

Page generated in 0.0809 seconds.